<?xml version="1.0" encoding="UTF-8" standalone="no" ?>
<gpx xmlns="http://www.topografix.com/GPX/1/1" xmlns:xsi="http://www.w3.org/2001/XMLSchema-instance" xsi:schemaLocation="http://www.topografix.com/GPX/1/1 http://www.topografix.com/GPX/1/1/gpx.xsd" version="1.1" creator="VisuGPX - https://www.visugpx.com">
  <metadata>
    <name>Domblans - Frontenay - Menétru-le-Vignoble - Château-Chalon</name>
    <desc><![CDATA[Randonnée pédestre effectuée le 28 octobre 2021]]></desc>
  </metadata>
  <trk>
    <name><![CDATA[28 oct. 2021 à 08:41:50]]></name>
    <extensions>
      <line xmlns="http://www.topografix.com/GPX/gpx_style/0/2">
        <color>0000FF</color>
        <width>4</width>
      </line>
    </extensions>
    <trkseg>
      <trkpt lat="46.76697" lon="5.5999">
        <ele>253</ele>
        <time>2021-10-28T06:41:50Z</time>
      </trkpt>
      <trkpt lat="46.76695" lon="5.6">
        <ele>253</ele>
        <time>2021-10-28T06:42:20Z</time>
      </trkpt>
      <trkpt lat="46.76704" lon="5.60001">
        <ele>252</ele>
        <time>2021-10-28T06:43:26Z</time>
      </trkpt>
      <trkpt lat="46.76739" lon="5.60029">
        <ele>251</ele>
        <time>2021-10-28T06:44:03Z</time>
      </trkpt>
      <trkpt lat="46.76735" lon="5.60038">
        <ele>252</ele>
        <time>2021-10-28T06:44:10Z</time>
      </trkpt>
      <trkpt lat="46.76731" lon="5.60044">
        <ele>252</ele>
        <time>2021-10-28T06:44:14Z</time>
      </trkpt>
      <trkpt lat="46.76729" lon="5.60052">
        <ele>252</ele>
        <time>2021-10-28T06:44:19Z</time>
      </trkpt>
      <trkpt lat="46.76732" lon="5.60059">
        <ele>252</ele>
        <time>2021-10-28T06:44:23Z</time>
      </trkpt>
      <trkpt lat="46.76742" lon="5.60071">
        <ele>252</ele>
        <time>2021-10-28T06:44:32Z</time>
      </trkpt>
      <trkpt lat="46.76745" lon="5.60077">
        <ele>253</ele>
        <time>2021-10-28T06:44:37Z</time>
      </trkpt>
      <trkpt lat="46.76748" lon="5.60088">
        <ele>252</ele>
        <time>2021-10-28T06:44:45Z</time>
      </trkpt>
      <trkpt lat="46.76779" lon="5.60123">
        <ele>252</ele>
        <time>2021-10-28T06:45:18Z</time>
      </trkpt>
      <trkpt lat="46.76783" lon="5.6013">
        <ele>252</ele>
        <time>2021-10-28T06:45:24Z</time>
      </trkpt>
      <trkpt lat="46.76787" lon="5.60135">
        <ele>252</ele>
        <time>2021-10-28T06:45:29Z</time>
      </trkpt>
      <trkpt lat="46.7681" lon="5.60177">
        <ele>251</ele>
        <time>2021-10-28T06:46:02Z</time>
      </trkpt>
      <trkpt lat="46.76814" lon="5.60183">
        <ele>252</ele>
        <time>2021-10-28T06:46:08Z</time>
      </trkpt>
      <trkpt lat="46.76818" lon="5.60189">
        <ele>251</ele>
        <time>2021-10-28T06:46:13Z</time>
      </trkpt>
      <trkpt lat="46.76827" lon="5.60199">
        <ele>252</ele>
        <time>2021-10-28T06:46:23Z</time>
      </trkpt>
      <trkpt lat="46.76831" lon="5.60207">
        <ele>252</ele>
        <time>2021-10-28T06:46:28Z</time>
      </trkpt>
      <trkpt lat="46.76835" lon="5.60212">
        <ele>252</ele>
        <time>2021-10-28T06:46:33Z</time>
      </trkpt>
      <trkpt lat="46.76845" lon="5.60221">
        <ele>252</ele>
        <time>2021-10-28T06:46:43Z</time>
      </trkpt>
      <trkpt lat="46.76861" lon="5.6024">
        <ele>253</ele>
        <time>2021-10-28T06:47:00Z</time>
      </trkpt>
      <trkpt lat="46.7689" lon="5.60262">
        <ele>254</ele>
        <time>2021-10-28T06:47:31Z</time>
      </trkpt>
      <trkpt lat="46.76898" lon="5.60267">
        <ele>255</ele>
        <time>2021-10-28T06:47:39Z</time>
      </trkpt>
      <trkpt lat="46.76919" lon="5.60275">
        <ele>258</ele>
        <time>2021-10-28T06:48:04Z</time>
      </trkpt>
      <trkpt lat="46.76931" lon="5.60282">
        <ele>260</ele>
        <time>2021-10-28T06:48:18Z</time>
      </trkpt>
      <trkpt lat="46.76936" lon="5.6029">
        <ele>262</ele>
        <time>2021-10-28T06:48:30Z</time>
      </trkpt>
      <trkpt lat="46.76942" lon="5.60294">
        <ele>262</ele>
        <time>2021-10-28T06:48:36Z</time>
      </trkpt>
      <trkpt lat="46.76947" lon="5.60298">
        <ele>263</ele>
        <time>2021-10-28T06:48:40Z</time>
      </trkpt>
      <trkpt lat="46.76952" lon="5.60304">
        <ele>264</ele>
        <time>2021-10-28T06:48:46Z</time>
      </trkpt>
      <trkpt lat="46.7696" lon="5.60308">
        <ele>266</ele>
        <time>2021-10-28T06:48:56Z</time>
      </trkpt>
      <trkpt lat="46.76965" lon="5.60309">
        <ele>266</ele>
        <time>2021-10-28T06:49:01Z</time>
      </trkpt>
      <trkpt lat="46.76971" lon="5.60308">
        <ele>267</ele>
        <time>2021-10-28T06:49:08Z</time>
      </trkpt>
      <trkpt lat="46.76975" lon="5.60314">
        <ele>268</ele>
        <time>2021-10-28T06:49:18Z</time>
      </trkpt>
      <trkpt lat="46.76982" lon="5.60319">
        <ele>268</ele>
        <time>2021-10-28T06:49:30Z</time>
      </trkpt>
      <trkpt lat="46.77008" lon="5.60324">
        <ele>271</ele>
        <time>2021-10-28T06:49:54Z</time>
      </trkpt>
      <trkpt lat="46.77025" lon="5.60319">
        <ele>273</ele>
        <time>2021-10-28T06:50:14Z</time>
      </trkpt>
      <trkpt lat="46.77043" lon="5.60325">
        <ele>276</ele>
        <time>2021-10-28T06:50:46Z</time>
      </trkpt>
      <trkpt lat="46.77049" lon="5.60326">
        <ele>276</ele>
        <time>2021-10-28T06:50:51Z</time>
      </trkpt>
      <trkpt lat="46.77056" lon="5.60324">
        <ele>277</ele>
        <time>2021-10-28T06:50:56Z</time>
      </trkpt>
      <trkpt lat="46.77062" lon="5.60322">
        <ele>278</ele>
        <time>2021-10-28T06:51:01Z</time>
      </trkpt>
      <trkpt lat="46.77067" lon="5.60319">
        <ele>278</ele>
        <time>2021-10-28T06:51:07Z</time>
      </trkpt>
      <trkpt lat="46.77097" lon="5.60317">
        <ele>282</ele>
        <time>2021-10-28T06:51:38Z</time>
      </trkpt>
      <trkpt lat="46.77103" lon="5.60317">
        <ele>283</ele>
        <time>2021-10-28T06:51:43Z</time>
      </trkpt>
      <trkpt lat="46.77107" lon="5.60313">
        <ele>284</ele>
        <time>2021-10-28T06:51:49Z</time>
      </trkpt>
      <trkpt lat="46.77116" lon="5.60313">
        <ele>284</ele>
        <time>2021-10-28T06:51:56Z</time>
      </trkpt>
      <trkpt lat="46.77123" lon="5.60312">
        <ele>286</ele>
        <time>2021-10-28T06:52:05Z</time>
      </trkpt>
      <trkpt lat="46.77137" lon="5.60311">
        <ele>288</ele>
        <time>2021-10-28T06:52:20Z</time>
      </trkpt>
      <trkpt lat="46.77143" lon="5.60316">
        <ele>289</ele>
        <time>2021-10-28T06:52:32Z</time>
      </trkpt>
      <trkpt lat="46.77146" lon="5.60322">
        <ele>291</ele>
        <time>2021-10-28T06:52:44Z</time>
      </trkpt>
      <trkpt lat="46.77148" lon="5.6033">
        <ele>290</ele>
        <time>2021-10-28T06:52:56Z</time>
      </trkpt>
      <trkpt lat="46.77143" lon="5.60347">
        <ele>289</ele>
        <time>2021-10-28T06:53:13Z</time>
      </trkpt>
      <trkpt lat="46.77142" lon="5.60367">
        <ele>288</ele>
        <time>2021-10-28T06:53:27Z</time>
      </trkpt>
      <trkpt lat="46.77138" lon="5.60376">
        <ele>287</ele>
        <time>2021-10-28T06:53:36Z</time>
      </trkpt>
      <trkpt lat="46.77137" lon="5.60385">
        <ele>286</ele>
        <time>2021-10-28T06:53:41Z</time>
      </trkpt>
      <trkpt lat="46.77134" lon="5.60393">
        <ele>286</ele>
        <time>2021-10-28T06:53:46Z</time>
      </trkpt>
      <trkpt lat="46.77137" lon="5.60402">
        <ele>286</ele>
        <time>2021-10-28T06:53:51Z</time>
      </trkpt>
      <trkpt lat="46.77141" lon="5.6042">
        <ele>286</ele>
        <time>2021-10-28T06:54:04Z</time>
      </trkpt>
      <trkpt lat="46.7714" lon="5.60429">
        <ele>286</ele>
        <time>2021-10-28T06:54:12Z</time>
      </trkpt>
      <trkpt lat="46.77139" lon="5.60438">
        <ele>286</ele>
        <time>2021-10-28T06:54:18Z</time>
      </trkpt>
      <trkpt lat="46.77133" lon="5.60453">
        <ele>286</ele>
        <time>2021-10-28T06:54:28Z</time>
      </trkpt>
      <trkpt lat="46.77132" lon="5.60461">
        <ele>285</ele>
        <time>2021-10-28T06:54:32Z</time>
      </trkpt>
      <trkpt lat="46.77126" lon="5.60495">
        <ele>286</ele>
        <time>2021-10-28T06:54:54Z</time>
      </trkpt>
      <trkpt lat="46.77127" lon="5.60504">
        <ele>286</ele>
        <time>2021-10-28T06:55:00Z</time>
      </trkpt>
      <trkpt lat="46.77128" lon="5.60513">
        <ele>286</ele>
        <time>2021-10-28T06:55:06Z</time>
      </trkpt>
      <trkpt lat="46.77127" lon="5.60538">
        <ele>287</ele>
        <time>2021-10-28T06:55:21Z</time>
      </trkpt>
      <trkpt lat="46.77129" lon="5.60558">
        <ele>288</ele>
        <time>2021-10-28T06:55:33Z</time>
      </trkpt>
      <trkpt lat="46.77132" lon="5.60565">
        <ele>288</ele>
        <time>2021-10-28T06:55:39Z</time>
      </trkpt>
      <trkpt lat="46.77141" lon="5.60595">
        <ele>289</ele>
        <time>2021-10-28T06:56:00Z</time>
      </trkpt>
      <trkpt lat="46.77142" lon="5.60603">
        <ele>289</ele>
        <time>2021-10-28T06:56:05Z</time>
      </trkpt>
      <trkpt lat="46.77146" lon="5.60635">
        <ele>288</ele>
        <time>2021-10-28T06:56:24Z</time>
      </trkpt>
      <trkpt lat="46.77148" lon="5.60644">
        <ele>289</ele>
        <time>2021-10-28T06:56:30Z</time>
      </trkpt>
      <trkpt lat="46.77155" lon="5.60653">
        <ele>290</ele>
        <time>2021-10-28T06:56:41Z</time>
      </trkpt>
      <trkpt lat="46.77157" lon="5.60667">
        <ele>292</ele>
        <time>2021-10-28T06:56:54Z</time>
      </trkpt>
      <trkpt lat="46.77155" lon="5.60677">
        <ele>293</ele>
        <time>2021-10-28T06:57:01Z</time>
      </trkpt>
      <trkpt lat="46.77153" lon="5.60685">
        <ele>293</ele>
        <time>2021-10-28T06:57:06Z</time>
      </trkpt>
      <trkpt lat="46.77152" lon="5.60718">
        <ele>296</ele>
        <time>2021-10-28T06:57:25Z</time>
      </trkpt>
      <trkpt lat="46.77156" lon="5.60725">
        <ele>296</ele>
        <time>2021-10-28T06:57:44Z</time>
      </trkpt>
      <trkpt lat="46.77159" lon="5.60732">
        <ele>297</ele>
        <time>2021-10-28T06:57:56Z</time>
      </trkpt>
      <trkpt lat="46.77165" lon="5.60737">
        <ele>296</ele>
        <time>2021-10-28T06:58:50Z</time>
      </trkpt>
      <trkpt lat="46.7717" lon="5.60741">
        <ele>297</ele>
        <time>2021-10-28T06:59:26Z</time>
      </trkpt>
      <trkpt lat="46.7718" lon="5.60763">
        <ele>300</ele>
        <time>2021-10-28T06:59:53Z</time>
      </trkpt>
      <trkpt lat="46.77186" lon="5.60754">
        <ele>301</ele>
        <time>2021-10-28T07:00:18Z</time>
      </trkpt>
      <trkpt lat="46.77191" lon="5.60747">
        <ele>303</ele>
        <time>2021-10-28T07:00:54Z</time>
      </trkpt>
      <trkpt lat="46.77195" lon="5.60741">
        <ele>308</ele>
        <time>2021-10-28T07:01:12Z</time>
      </trkpt>
      <trkpt lat="46.77201" lon="5.60727">
        <ele>312</ele>
        <time>2021-10-28T07:01:44Z</time>
      </trkpt>
      <trkpt lat="46.77206" lon="5.60717">
        <ele>312</ele>
        <time>2021-10-28T07:01:51Z</time>
      </trkpt>
      <trkpt lat="46.77211" lon="5.60693">
        <ele>314</ele>
        <time>2021-10-28T07:02:09Z</time>
      </trkpt>
      <trkpt lat="46.77216" lon="5.60685">
        <ele>315</ele>
        <time>2021-10-28T07:02:29Z</time>
      </trkpt>
      <trkpt lat="46.77218" lon="5.60676">
        <ele>315</ele>
        <time>2021-10-28T07:02:37Z</time>
      </trkpt>
      <trkpt lat="46.77226" lon="5.60661">
        <ele>316</ele>
        <time>2021-10-28T07:02:53Z</time>
      </trkpt>
      <trkpt lat="46.77226" lon="5.6065">
        <ele>318</ele>
        <time>2021-10-28T07:03:02Z</time>
      </trkpt>
      <trkpt lat="46.77228" lon="5.60636">
        <ele>318</ele>
        <time>2021-10-28T07:03:15Z</time>
      </trkpt>
      <trkpt lat="46.77244" lon="5.60583">
        <ele>321</ele>
        <time>2021-10-28T07:03:50Z</time>
      </trkpt>
      <trkpt lat="46.77247" lon="5.60553">
        <ele>321</ele>
        <time>2021-10-28T07:04:10Z</time>
      </trkpt>
      <trkpt lat="46.77254" lon="5.60557">
        <ele>325</ele>
        <time>2021-10-28T07:04:45Z</time>
      </trkpt>
      <trkpt lat="46.77253" lon="5.60568">
        <ele>327</ele>
        <time>2021-10-28T07:05:03Z</time>
      </trkpt>
      <trkpt lat="46.77248" lon="5.60612">
        <ele>332</ele>
        <time>2021-10-28T07:05:38Z</time>
      </trkpt>
      <trkpt lat="46.7725" lon="5.60626">
        <ele>333</ele>
        <time>2021-10-28T07:05:50Z</time>
      </trkpt>
      <trkpt lat="46.77254" lon="5.60633">
        <ele>336</ele>
        <time>2021-10-28T07:05:58Z</time>
      </trkpt>
      <trkpt lat="46.7726" lon="5.60644">
        <ele>336</ele>
        <time>2021-10-28T07:06:11Z</time>
      </trkpt>
      <trkpt lat="46.77266" lon="5.60651">
        <ele>338</ele>
        <time>2021-10-28T07:06:22Z</time>
      </trkpt>
      <trkpt lat="46.77276" lon="5.60659">
        <ele>340</ele>
        <time>2021-10-28T07:06:36Z</time>
      </trkpt>
      <trkpt lat="46.77284" lon="5.60665">
        <ele>341</ele>
        <time>2021-10-28T07:06:51Z</time>
      </trkpt>
      <trkpt lat="46.77305" lon="5.60677">
        <ele>348</ele>
        <time>2021-10-28T07:07:30Z</time>
      </trkpt>
      <trkpt lat="46.77312" lon="5.60682">
        <ele>348</ele>
        <time>2021-10-28T07:07:38Z</time>
      </trkpt>
      <trkpt lat="46.77317" lon="5.60694">
        <ele>350</ele>
        <time>2021-10-28T07:07:53Z</time>
      </trkpt>
      <trkpt lat="46.77334" lon="5.60709">
        <ele>352</ele>
        <time>2021-10-28T07:08:15Z</time>
      </trkpt>
      <trkpt lat="46.77342" lon="5.60713">
        <ele>355</ele>
        <time>2021-10-28T07:08:27Z</time>
      </trkpt>
      <trkpt lat="46.77348" lon="5.6072">
        <ele>356</ele>
        <time>2021-10-28T07:08:39Z</time>
      </trkpt>
      <trkpt lat="46.77373" lon="5.60748">
        <ele>361</ele>
        <time>2021-10-28T07:09:14Z</time>
      </trkpt>
      <trkpt lat="46.77391" lon="5.60772">
        <ele>363</ele>
        <time>2021-10-28T07:09:46Z</time>
      </trkpt>
      <trkpt lat="46.77401" lon="5.60784">
        <ele>364</ele>
        <time>2021-10-28T07:09:57Z</time>
      </trkpt>
      <trkpt lat="46.77408" lon="5.60786">
        <ele>364</ele>
        <time>2021-10-28T07:10:04Z</time>
      </trkpt>
      <trkpt lat="46.77418" lon="5.60785">
        <ele>366</ele>
        <time>2021-10-28T07:10:18Z</time>
      </trkpt>
      <trkpt lat="46.77426" lon="5.60785">
        <ele>366</ele>
        <time>2021-10-28T07:10:28Z</time>
      </trkpt>
      <trkpt lat="46.7744" lon="5.6078">
        <ele>368</ele>
        <time>2021-10-28T07:10:47Z</time>
      </trkpt>
      <trkpt lat="46.77466" lon="5.60794">
        <ele>374</ele>
        <time>2021-10-28T07:11:26Z</time>
      </trkpt>
      <trkpt lat="46.77498" lon="5.60822">
        <ele>377</ele>
        <time>2021-10-28T07:12:05Z</time>
      </trkpt>
      <trkpt lat="46.77515" lon="5.60842">
        <ele>378</ele>
        <time>2021-10-28T07:12:33Z</time>
      </trkpt>
      <trkpt lat="46.77522" lon="5.60845">
        <ele>378</ele>
        <time>2021-10-28T07:12:41Z</time>
      </trkpt>
      <trkpt lat="46.77541" lon="5.60861">
        <ele>379</ele>
        <time>2021-10-28T07:12:57Z</time>
      </trkpt>
      <trkpt lat="46.77548" lon="5.60866">
        <ele>380</ele>
        <time>2021-10-28T07:13:02Z</time>
      </trkpt>
      <trkpt lat="46.77573" lon="5.60892">
        <ele>381</ele>
        <time>2021-10-28T07:13:36Z</time>
      </trkpt>
      <trkpt lat="46.77586" lon="5.60902">
        <ele>381</ele>
        <time>2021-10-28T07:13:47Z</time>
      </trkpt>
      <trkpt lat="46.77593" lon="5.60906">
        <ele>382</ele>
        <time>2021-10-28T07:13:55Z</time>
      </trkpt>
      <trkpt lat="46.776" lon="5.60913">
        <ele>382</ele>
        <time>2021-10-28T07:14:02Z</time>
      </trkpt>
      <trkpt lat="46.77613" lon="5.60917">
        <ele>382</ele>
        <time>2021-10-28T07:14:16Z</time>
      </trkpt>
      <trkpt lat="46.77619" lon="5.60923">
        <ele>382</ele>
        <time>2021-10-28T07:14:22Z</time>
      </trkpt>
      <trkpt lat="46.77627" lon="5.60938">
        <ele>383</ele>
        <time>2021-10-28T07:14:43Z</time>
      </trkpt>
      <trkpt lat="46.77642" lon="5.60951">
        <ele>383</ele>
        <time>2021-10-28T07:14:54Z</time>
      </trkpt>
      <trkpt lat="46.77648" lon="5.60954">
        <ele>384</ele>
        <time>2021-10-28T07:15:00Z</time>
      </trkpt>
      <trkpt lat="46.77669" lon="5.60969">
        <ele>384</ele>
        <time>2021-10-28T07:15:17Z</time>
      </trkpt>
      <trkpt lat="46.77675" lon="5.60971">
        <ele>384</ele>
        <time>2021-10-28T07:15:29Z</time>
      </trkpt>
      <trkpt lat="46.77677" lon="5.60968">
        <ele>383</ele>
        <time>2021-10-28T07:16:47Z</time>
      </trkpt>
      <trkpt lat="46.77684" lon="5.6098">
        <ele>381</ele>
        <time>2021-10-28T07:18:51Z</time>
      </trkpt>
      <trkpt lat="46.77695" lon="5.60992">
        <ele>380</ele>
        <time>2021-10-28T07:19:04Z</time>
      </trkpt>
      <trkpt lat="46.77705" lon="5.60996">
        <ele>380</ele>
        <time>2021-10-28T07:19:09Z</time>
      </trkpt>
      <trkpt lat="46.77736" lon="5.61035">
        <ele>380</ele>
        <time>2021-10-28T07:19:53Z</time>
      </trkpt>
      <trkpt lat="46.77744" lon="5.61037">
        <ele>380</ele>
        <time>2021-10-28T07:20:00Z</time>
      </trkpt>
      <trkpt lat="46.77759" lon="5.61059">
        <ele>379</ele>
        <time>2021-10-28T07:20:19Z</time>
      </trkpt>
      <trkpt lat="46.77774" lon="5.61062">
        <ele>378</ele>
        <time>2021-10-28T07:20:35Z</time>
      </trkpt>
      <trkpt lat="46.77807" lon="5.6109">
        <ele>378</ele>
        <time>2021-10-28T07:21:10Z</time>
      </trkpt>
      <trkpt lat="46.77814" lon="5.61092">
        <ele>377</ele>
        <time>2021-10-28T07:21:18Z</time>
      </trkpt>
      <trkpt lat="46.77822" lon="5.611">
        <ele>377</ele>
        <time>2021-10-28T07:21:31Z</time>
      </trkpt>
      <trkpt lat="46.77834" lon="5.61108">
        <ele>377</ele>
        <time>2021-10-28T07:21:44Z</time>
      </trkpt>
      <trkpt lat="46.77854" lon="5.61123">
        <ele>375</ele>
        <time>2021-10-28T07:22:09Z</time>
      </trkpt>
      <trkpt lat="46.77866" lon="5.61155">
        <ele>374</ele>
        <time>2021-10-28T07:22:40Z</time>
      </trkpt>
      <trkpt lat="46.77873" lon="5.61176">
        <ele>373</ele>
        <time>2021-10-28T07:22:50Z</time>
      </trkpt>
      <trkpt lat="46.77875" lon="5.61198">
        <ele>373</ele>
        <time>2021-10-28T07:23:02Z</time>
      </trkpt>
      <trkpt lat="46.77873" lon="5.61221">
        <ele>373</ele>
        <time>2021-10-28T07:23:11Z</time>
      </trkpt>
      <trkpt lat="46.7788" lon="5.61262">
        <ele>375</ele>
        <time>2021-10-28T07:23:36Z</time>
      </trkpt>
      <trkpt lat="46.77883" lon="5.61272">
        <ele>376</ele>
        <time>2021-10-28T07:23:43Z</time>
      </trkpt>
      <trkpt lat="46.77891" lon="5.61282">
        <ele>376</ele>
        <time>2021-10-28T07:23:49Z</time>
      </trkpt>
      <trkpt lat="46.77894" lon="5.61291">
        <ele>376</ele>
        <time>2021-10-28T07:23:55Z</time>
      </trkpt>
      <trkpt lat="46.77898" lon="5.613">
        <ele>376</ele>
        <time>2021-10-28T07:24:03Z</time>
      </trkpt>
      <trkpt lat="46.77911" lon="5.61314">
        <ele>376</ele>
        <time>2021-10-28T07:24:18Z</time>
      </trkpt>
      <trkpt lat="46.77917" lon="5.61323">
        <ele>376</ele>
        <time>2021-10-28T07:24:29Z</time>
      </trkpt>
      <trkpt lat="46.77929" lon="5.61336">
        <ele>376</ele>
        <time>2021-10-28T07:24:42Z</time>
      </trkpt>
      <trkpt lat="46.77939" lon="5.61354">
        <ele>374</ele>
        <time>2021-10-28T07:24:56Z</time>
      </trkpt>
      <trkpt lat="46.77942" lon="5.61363">
        <ele>372</ele>
        <time>2021-10-28T07:25:02Z</time>
      </trkpt>
      <trkpt lat="46.7794" lon="5.61398">
        <ele>370</ele>
        <time>2021-10-28T07:25:21Z</time>
      </trkpt>
      <trkpt lat="46.77926" lon="5.61441">
        <ele>368</ele>
        <time>2021-10-28T07:25:53Z</time>
      </trkpt>
      <trkpt lat="46.77921" lon="5.61457">
        <ele>367</ele>
        <time>2021-10-28T07:26:04Z</time>
      </trkpt>
      <trkpt lat="46.77921" lon="5.61462">
        <ele>367</ele>
        <time>2021-10-28T07:26:07Z</time>
      </trkpt>
      <trkpt lat="46.77923" lon="5.61467">
        <ele>367</ele>
        <time>2021-10-28T07:26:10Z</time>
      </trkpt>
      <trkpt lat="46.77925" lon="5.61472">
        <ele>367</ele>
        <time>2021-10-28T07:26:12Z</time>
      </trkpt>
      <trkpt lat="46.77928" lon="5.61475">
        <ele>366</ele>
        <time>2021-10-28T07:26:15Z</time>
      </trkpt>
      <trkpt lat="46.77933" lon="5.6148">
        <ele>366</ele>
        <time>2021-10-28T07:26:24Z</time>
      </trkpt>
      <trkpt lat="46.77953" lon="5.61488">
        <ele>365</ele>
        <time>2021-10-28T07:26:41Z</time>
      </trkpt>
      <trkpt lat="46.77967" lon="5.6149">
        <ele>364</ele>
        <time>2021-10-28T07:26:49Z</time>
      </trkpt>
      <trkpt lat="46.77972" lon="5.61489">
        <ele>364</ele>
        <time>2021-10-28T07:26:55Z</time>
      </trkpt>
      <trkpt lat="46.77979" lon="5.61488">
        <ele>365</ele>
        <time>2021-10-28T07:27:00Z</time>
      </trkpt>
      <trkpt lat="46.7799" lon="5.61485">
        <ele>364</ele>
        <time>2021-10-28T07:27:08Z</time>
      </trkpt>
      <trkpt lat="46.77997" lon="5.61487">
        <ele>363</ele>
        <time>2021-10-28T07:27:12Z</time>
      </trkpt>
      <trkpt lat="46.78002" lon="5.61488">
        <ele>363</ele>
        <time>2021-10-28T07:27:17Z</time>
      </trkpt>
      <trkpt lat="46.78009" lon="5.6149">
        <ele>362</ele>
        <time>2021-10-28T07:27:22Z</time>
      </trkpt>
      <trkpt lat="46.78014" lon="5.61489">
        <ele>361</ele>
        <time>2021-10-28T07:27:27Z</time>
      </trkpt>
      <trkpt lat="46.78021" lon="5.6149">
        <ele>361</ele>
        <time>2021-10-28T07:27:31Z</time>
      </trkpt>
      <trkpt lat="46.78027" lon="5.6149">
        <ele>361</ele>
        <time>2021-10-28T07:27:37Z</time>
      </trkpt>
      <trkpt lat="46.78031" lon="5.61492">
        <ele>360</ele>
        <time>2021-10-28T07:27:40Z</time>
      </trkpt>
      <trkpt lat="46.78037" lon="5.61491">
        <ele>359</ele>
        <time>2021-10-28T07:27:46Z</time>
      </trkpt>
      <trkpt lat="46.78043" lon="5.61488">
        <ele>360</ele>
        <time>2021-10-28T07:27:52Z</time>
      </trkpt>
      <trkpt lat="46.78059" lon="5.61493">
        <ele>359</ele>
        <time>2021-10-28T07:28:19Z</time>
      </trkpt>
      <trkpt lat="46.78067" lon="5.61496">
        <ele>358</ele>
        <time>2021-10-28T07:28:25Z</time>
      </trkpt>
      <trkpt lat="46.78072" lon="5.615">
        <ele>358</ele>
        <time>2021-10-28T07:28:30Z</time>
      </trkpt>
      <trkpt lat="46.78079" lon="5.61502">
        <ele>358</ele>
        <time>2021-10-28T07:28:35Z</time>
      </trkpt>
      <trkpt lat="46.78085" lon="5.61505">
        <ele>358</ele>
        <time>2021-10-28T07:28:39Z</time>
      </trkpt>
      <trkpt lat="46.78091" lon="5.61504">
        <ele>356</ele>
        <time>2021-10-28T07:28:47Z</time>
      </trkpt>
      <trkpt lat="46.78097" lon="5.61501">
        <ele>355</ele>
        <time>2021-10-28T07:28:54Z</time>
      </trkpt>
      <trkpt lat="46.78113" lon="5.61504">
        <ele>351</ele>
        <time>2021-10-28T07:29:14Z</time>
      </trkpt>
      <trkpt lat="46.78119" lon="5.61508">
        <ele>350</ele>
        <time>2021-10-28T07:29:20Z</time>
      </trkpt>
      <trkpt lat="46.78128" lon="5.61518">
        <ele>348</ele>
        <time>2021-10-28T07:29:32Z</time>
      </trkpt>
      <trkpt lat="46.78132" lon="5.61525">
        <ele>347</ele>
        <time>2021-10-28T07:29:38Z</time>
      </trkpt>
      <trkpt lat="46.78141" lon="5.61533">
        <ele>345</ele>
        <time>2021-10-28T07:29:52Z</time>
      </trkpt>
      <trkpt lat="46.78147" lon="5.61538">
        <ele>344</ele>
        <time>2021-10-28T07:30:00Z</time>
      </trkpt>
      <trkpt lat="46.78155" lon="5.6155">
        <ele>343</ele>
        <time>2021-10-28T07:30:09Z</time>
      </trkpt>
      <trkpt lat="46.78163" lon="5.61554">
        <ele>343</ele>
        <time>2021-10-28T07:30:20Z</time>
      </trkpt>
      <trkpt lat="46.7817" lon="5.61559">
        <ele>342</ele>
        <time>2021-10-28T07:30:27Z</time>
      </trkpt>
      <trkpt lat="46.78177" lon="5.61572">
        <ele>341</ele>
        <time>2021-10-28T07:30:40Z</time>
      </trkpt>
      <trkpt lat="46.78195" lon="5.61594">
        <ele>338</ele>
        <time>2021-10-28T07:31:00Z</time>
      </trkpt>
      <trkpt lat="46.78202" lon="5.61596">
        <ele>337</ele>
        <time>2021-10-28T07:31:08Z</time>
      </trkpt>
      <trkpt lat="46.78212" lon="5.61605">
        <ele>335</ele>
        <time>2021-10-28T07:31:21Z</time>
      </trkpt>
      <trkpt lat="46.78217" lon="5.61608">
        <ele>334</ele>
        <time>2021-10-28T07:31:26Z</time>
      </trkpt>
      <trkpt lat="46.78228" lon="5.61603">
        <ele>332</ele>
        <time>2021-10-28T07:31:37Z</time>
      </trkpt>
      <trkpt lat="46.7824" lon="5.61605">
        <ele>331</ele>
        <time>2021-10-28T07:31:48Z</time>
      </trkpt>
      <trkpt lat="46.78247" lon="5.61602">
        <ele>330</ele>
        <time>2021-10-28T07:31:55Z</time>
      </trkpt>
      <trkpt lat="46.78256" lon="5.61592">
        <ele>330</ele>
        <time>2021-10-28T07:32:26Z</time>
      </trkpt>
      <trkpt lat="46.78276" lon="5.61607">
        <ele>329</ele>
        <time>2021-10-28T07:32:43Z</time>
      </trkpt>
      <trkpt lat="46.78279" lon="5.61614">
        <ele>329</ele>
        <time>2021-10-28T07:32:49Z</time>
      </trkpt>
      <trkpt lat="46.78284" lon="5.61619">
        <ele>329</ele>
        <time>2021-10-28T07:32:55Z</time>
      </trkpt>
      <trkpt lat="46.78289" lon="5.61625">
        <ele>330</ele>
        <time>2021-10-28T07:33:01Z</time>
      </trkpt>
      <trkpt lat="46.78294" lon="5.61633">
        <ele>330</ele>
        <time>2021-10-28T07:33:05Z</time>
      </trkpt>
      <trkpt lat="46.78308" lon="5.61657">
        <ele>333</ele>
        <time>2021-10-28T07:33:30Z</time>
      </trkpt>
      <trkpt lat="46.78313" lon="5.61663">
        <ele>334</ele>
        <time>2021-10-28T07:33:36Z</time>
      </trkpt>
      <trkpt lat="46.78324" lon="5.61661">
        <ele>334</ele>
        <time>2021-10-28T07:33:45Z</time>
      </trkpt>
      <trkpt lat="46.7833" lon="5.61654">
        <ele>334</ele>
        <time>2021-10-28T07:33:52Z</time>
      </trkpt>
      <trkpt lat="46.78335" lon="5.61647">
        <ele>334</ele>
        <time>2021-10-28T07:34:01Z</time>
      </trkpt>
      <trkpt lat="46.78341" lon="5.61635">
        <ele>336</ele>
        <time>2021-10-28T07:34:13Z</time>
      </trkpt>
      <trkpt lat="46.78353" lon="5.61636">
        <ele>338</ele>
        <time>2021-10-28T07:34:28Z</time>
      </trkpt>
      <trkpt lat="46.78358" lon="5.61644">
        <ele>338</ele>
        <time>2021-10-28T07:34:35Z</time>
      </trkpt>
      <trkpt lat="46.78363" lon="5.61653">
        <ele>339</ele>
        <time>2021-10-28T07:34:40Z</time>
      </trkpt>
      <trkpt lat="46.78378" lon="5.61693">
        <ele>342</ele>
        <time>2021-10-28T07:35:13Z</time>
      </trkpt>
      <trkpt lat="46.78386" lon="5.61681">
        <ele>349</ele>
        <time>2021-10-28T07:35:44Z</time>
      </trkpt>
      <trkpt lat="46.7839" lon="5.6167">
        <ele>350</ele>
        <time>2021-10-28T07:35:53Z</time>
      </trkpt>
      <trkpt lat="46.78383" lon="5.61664">
        <ele>353</ele>
        <time>2021-10-28T07:36:13Z</time>
      </trkpt>
      <trkpt lat="46.7838" lon="5.61652">
        <ele>356</ele>
        <time>2021-10-28T07:36:43Z</time>
      </trkpt>
      <trkpt lat="46.78373" lon="5.61646">
        <ele>358</ele>
        <time>2021-10-28T07:36:51Z</time>
      </trkpt>
      <trkpt lat="46.78369" lon="5.61635">
        <ele>360</ele>
        <time>2021-10-28T07:37:10Z</time>
      </trkpt>
      <trkpt lat="46.78364" lon="5.6162">
        <ele>360</ele>
        <time>2021-10-28T07:37:37Z</time>
      </trkpt>
      <trkpt lat="46.78366" lon="5.61608">
        <ele>360</ele>
        <time>2021-10-28T07:37:54Z</time>
      </trkpt>
      <trkpt lat="46.78361" lon="5.61601">
        <ele>360</ele>
        <time>2021-10-28T07:38:14Z</time>
      </trkpt>
      <trkpt lat="46.78361" lon="5.6159">
        <ele>360</ele>
        <time>2021-10-28T07:38:25Z</time>
      </trkpt>
      <trkpt lat="46.78369" lon="5.61566">
        <ele>366</ele>
        <time>2021-10-28T07:39:03Z</time>
      </trkpt>
      <trkpt lat="46.78378" lon="5.61566">
        <ele>369</ele>
        <time>2021-10-28T07:39:21Z</time>
      </trkpt>
      <trkpt lat="46.78385" lon="5.61573">
        <ele>372</ele>
        <time>2021-10-28T07:39:33Z</time>
      </trkpt>
      <trkpt lat="46.78403" lon="5.61583">
        <ele>378</ele>
        <time>2021-10-28T07:40:15Z</time>
      </trkpt>
      <trkpt lat="46.78411" lon="5.61587">
        <ele>383</ele>
        <time>2021-10-28T07:40:45Z</time>
      </trkpt>
      <trkpt lat="46.78422" lon="5.61595">
        <ele>387</ele>
        <time>2021-10-28T07:41:14Z</time>
      </trkpt>
      <trkpt lat="46.7842" lon="5.61609">
        <ele>390</ele>
        <time>2021-10-28T07:41:34Z</time>
      </trkpt>
      <trkpt lat="46.78422" lon="5.61621">
        <ele>393</ele>
        <time>2021-10-28T07:41:52Z</time>
      </trkpt>
      <trkpt lat="46.7843" lon="5.61635">
        <ele>395</ele>
        <time>2021-10-28T07:42:05Z</time>
      </trkpt>
      <trkpt lat="46.78445" lon="5.61658">
        <ele>397</ele>
        <time>2021-10-28T07:42:28Z</time>
      </trkpt>
      <trkpt lat="46.78453" lon="5.61664">
        <ele>399</ele>
        <time>2021-10-28T07:42:45Z</time>
      </trkpt>
      <trkpt lat="46.78465" lon="5.61669">
        <ele>400</ele>
        <time>2021-10-28T07:43:07Z</time>
      </trkpt>
      <trkpt lat="46.7848" lon="5.61669">
        <ele>400</ele>
        <time>2021-10-28T07:43:23Z</time>
      </trkpt>
      <trkpt lat="46.78487" lon="5.61673">
        <ele>400</ele>
        <time>2021-10-28T07:43:30Z</time>
      </trkpt>
      <trkpt lat="46.78512" lon="5.61695">
        <ele>401</ele>
        <time>2021-10-28T07:43:58Z</time>
      </trkpt>
      <trkpt lat="46.78524" lon="5.6171">
        <ele>402</ele>
        <time>2021-10-28T07:44:10Z</time>
      </trkpt>
      <trkpt lat="46.78534" lon="5.6172">
        <ele>402</ele>
        <time>2021-10-28T07:44:26Z</time>
      </trkpt>
      <trkpt lat="46.78542" lon="5.61724">
        <ele>402</ele>
        <time>2021-10-28T07:44:36Z</time>
      </trkpt>
      <trkpt lat="46.78549" lon="5.61733">
        <ele>402</ele>
        <time>2021-10-28T07:45:12Z</time>
      </trkpt>
      <trkpt lat="46.78558" lon="5.61737">
        <ele>401</ele>
        <time>2021-10-28T07:45:36Z</time>
      </trkpt>
      <trkpt lat="46.78565" lon="5.61738">
        <ele>402</ele>
        <time>2021-10-28T07:46:28Z</time>
      </trkpt>
      <trkpt lat="46.78572" lon="5.61737">
        <ele>401</ele>
        <time>2021-10-28T07:46:58Z</time>
      </trkpt>
      <trkpt lat="46.78554" lon="5.61736">
        <ele>401</ele>
        <time>2021-10-28T07:47:59Z</time>
      </trkpt>
      <trkpt lat="46.78558" lon="5.61739">
        <ele>401</ele>
        <time>2021-10-28T07:49:01Z</time>
      </trkpt>
      <trkpt lat="46.78567" lon="5.61741">
        <ele>402</ele>
        <time>2021-10-28T07:49:19Z</time>
      </trkpt>
      <trkpt lat="46.78574" lon="5.61737">
        <ele>400</ele>
        <time>2021-10-28T07:49:37Z</time>
      </trkpt>
      <trkpt lat="46.78574" lon="5.61751">
        <ele>401</ele>
        <time>2021-10-28T07:49:50Z</time>
      </trkpt>
      <trkpt lat="46.78576" lon="5.61758">
        <ele>402</ele>
        <time>2021-10-28T07:52:40Z</time>
      </trkpt>
      <trkpt lat="46.78579" lon="5.61769">
        <ele>402</ele>
        <time>2021-10-28T07:52:49Z</time>
      </trkpt>
      <trkpt lat="46.78614" lon="5.61813">
        <ele>403</ele>
        <time>2021-10-28T07:53:24Z</time>
      </trkpt>
      <trkpt lat="46.78625" lon="5.61829">
        <ele>402</ele>
        <time>2021-10-28T07:53:41Z</time>
      </trkpt>
      <trkpt lat="46.78645" lon="5.61868">
        <ele>402</ele>
        <time>2021-10-28T07:54:12Z</time>
      </trkpt>
      <trkpt lat="46.7865" lon="5.61884">
        <ele>402</ele>
        <time>2021-10-28T07:54:27Z</time>
      </trkpt>
      <trkpt lat="46.78655" lon="5.61896">
        <ele>404</ele>
        <time>2021-10-28T07:54:41Z</time>
      </trkpt>
      <trkpt lat="46.78655" lon="5.61915">
        <ele>405</ele>
        <time>2021-10-28T07:54:55Z</time>
      </trkpt>
      <trkpt lat="46.78657" lon="5.6193">
        <ele>406</ele>
        <time>2021-10-28T07:55:08Z</time>
      </trkpt>
      <trkpt lat="46.78656" lon="5.61942">
        <ele>405</ele>
        <time>2021-10-28T07:55:16Z</time>
      </trkpt>
      <trkpt lat="46.78663" lon="5.61961">
        <ele>405</ele>
        <time>2021-10-28T07:55:37Z</time>
      </trkpt>
      <trkpt lat="46.78669" lon="5.61975">
        <ele>405</ele>
        <time>2021-10-28T07:55:51Z</time>
      </trkpt>
      <trkpt lat="46.78676" lon="5.61982">
        <ele>405</ele>
        <time>2021-10-28T07:55:59Z</time>
      </trkpt>
      <trkpt lat="46.78681" lon="5.61989">
        <ele>405</ele>
        <time>2021-10-28T07:56:05Z</time>
      </trkpt>
      <trkpt lat="46.78681" lon="5.62013">
        <ele>406</ele>
        <time>2021-10-28T07:56:19Z</time>
      </trkpt>
      <trkpt lat="46.78685" lon="5.62033">
        <ele>409</ele>
        <time>2021-10-28T07:56:39Z</time>
      </trkpt>
      <trkpt lat="46.7869" lon="5.62054">
        <ele>412</ele>
        <time>2021-10-28T07:56:55Z</time>
      </trkpt>
      <trkpt lat="46.78688" lon="5.62099">
        <ele>416</ele>
        <time>2021-10-28T07:57:24Z</time>
      </trkpt>
      <trkpt lat="46.78674" lon="5.62077">
        <ele>419</ele>
      </trkpt>
      <trkpt lat="46.78676" lon="5.62052">
        <ele>416</ele>
        <time>2021-10-28T07:57:57Z</time>
      </trkpt>
      <trkpt lat="46.78672" lon="5.62033">
        <ele>416</ele>
        <time>2021-10-28T07:58:11Z</time>
      </trkpt>
      <trkpt lat="46.78664" lon="5.62014">
        <ele>416</ele>
        <time>2021-10-28T07:58:23Z</time>
      </trkpt>
      <trkpt lat="46.78654" lon="5.61999">
        <ele>416</ele>
        <time>2021-10-28T07:58:34Z</time>
      </trkpt>
      <trkpt lat="46.7864" lon="5.61996">
        <ele>417</ele>
        <time>2021-10-28T07:58:52Z</time>
      </trkpt>
      <trkpt lat="46.78641" lon="5.61983">
        <ele>416</ele>
        <time>2021-10-28T07:59:30Z</time>
      </trkpt>
      <trkpt lat="46.78638" lon="5.61965">
        <ele>416</ele>
        <time>2021-10-28T07:59:44Z</time>
      </trkpt>
      <trkpt lat="46.78636" lon="5.61955">
        <ele>416</ele>
        <time>2021-10-28T07:59:49Z</time>
      </trkpt>
      <trkpt lat="46.78636" lon="5.61945">
        <ele>416</ele>
        <time>2021-10-28T08:00:00Z</time>
      </trkpt>
      <trkpt lat="46.78634" lon="5.61933">
        <ele>416</ele>
        <time>2021-10-28T08:00:12Z</time>
      </trkpt>
      <trkpt lat="46.7863" lon="5.61928">
        <ele>416</ele>
        <time>2021-10-28T08:00:23Z</time>
      </trkpt>
      <trkpt lat="46.7862" lon="5.6192">
        <ele>416</ele>
        <time>2021-10-28T08:00:30Z</time>
      </trkpt>
      <trkpt lat="46.7862" lon="5.61905">
        <ele>417</ele>
        <time>2021-10-28T08:00:54Z</time>
      </trkpt>
      <trkpt lat="46.78622" lon="5.61883">
        <ele>416</ele>
        <time>2021-10-28T08:01:12Z</time>
      </trkpt>
      <trkpt lat="46.78618" lon="5.61876">
        <ele>415</ele>
        <time>2021-10-28T08:03:17Z</time>
      </trkpt>
      <trkpt lat="46.78608" lon="5.61881">
        <ele>415</ele>
        <time>2021-10-28T08:03:42Z</time>
      </trkpt>
      <trkpt lat="46.78611" lon="5.61884">
        <ele>414</ele>
        <time>2021-10-28T08:04:20Z</time>
      </trkpt>
      <trkpt lat="46.78606" lon="5.61878">
        <ele>414</ele>
        <time>2021-10-28T08:05:36Z</time>
      </trkpt>
      <trkpt lat="46.786" lon="5.61873">
        <ele>413</ele>
        <time>2021-10-28T08:05:48Z</time>
      </trkpt>
      <trkpt lat="46.7859" lon="5.61871">
        <ele>414</ele>
        <time>2021-10-28T08:06:13Z</time>
      </trkpt>
      <trkpt lat="46.7859" lon="5.61867">
        <ele>413</ele>
        <time>2021-10-28T08:07:02Z</time>
      </trkpt>
      <trkpt lat="46.78585" lon="5.61881">
        <ele>412</ele>
        <time>2021-10-28T08:08:12Z</time>
      </trkpt>
      <trkpt lat="46.78589" lon="5.61888">
        <ele>412</ele>
        <time>2021-10-28T08:09:00Z</time>
      </trkpt>
      <trkpt lat="46.786" lon="5.61889">
        <ele>412</ele>
        <time>2021-10-28T08:09:31Z</time>
      </trkpt>
      <trkpt lat="46.78613" lon="5.61913">
        <ele>413</ele>
        <time>2021-10-28T08:09:57Z</time>
      </trkpt>
      <trkpt lat="46.7862" lon="5.61912">
        <ele>412</ele>
        <time>2021-10-28T08:10:05Z</time>
      </trkpt>
      <trkpt lat="46.78629" lon="5.61934">
        <ele>412</ele>
        <time>2021-10-28T08:10:15Z</time>
      </trkpt>
      <trkpt lat="46.78628" lon="5.6193">
        <ele>413</ele>
        <time>2021-10-28T08:10:43Z</time>
      </trkpt>
      <trkpt lat="46.78617" lon="5.61924">
        <ele>413</ele>
        <time>2021-10-28T08:10:51Z</time>
      </trkpt>
      <trkpt lat="46.78609" lon="5.61913">
        <ele>413</ele>
        <time>2021-10-28T08:10:56Z</time>
      </trkpt>
      <trkpt lat="46.78637" lon="5.61961">
        <ele>415.9</ele>
      </trkpt>
      <trkpt lat="46.78659" lon="5.62018">
        <ele>415.8</ele>
      </trkpt>
      <trkpt lat="46.78725" lon="5.62165">
        <ele>425.3</ele>
      </trkpt>
      <trkpt lat="46.78798" lon="5.62239">
        <ele>437.5</ele>
      </trkpt>
      <trkpt lat="46.78877" lon="5.62297">
        <ele>446.3</ele>
        <time>2021-10-28T08:19:27Z</time>
      </trkpt>
      <trkpt lat="46.78902" lon="5.6233">
        <ele>450.4</ele>
      </trkpt>
      <trkpt lat="46.78906" lon="5.62369">
        <ele>415</ele>
        <time>2021-10-28T08:19:39Z</time>
      </trkpt>
      <trkpt lat="46.78899" lon="5.62385">
        <ele>419</ele>
        <time>2021-10-28T08:20:30Z</time>
      </trkpt>
      <trkpt lat="46.78886" lon="5.62405">
        <ele>421</ele>
        <time>2021-10-28T08:20:50Z</time>
      </trkpt>
      <trkpt lat="46.78878" lon="5.62411">
        <ele>422</ele>
        <time>2021-10-28T08:21:03Z</time>
      </trkpt>
      <trkpt lat="46.78871" lon="5.62418">
        <ele>423</ele>
        <time>2021-10-28T08:21:11Z</time>
      </trkpt>
      <trkpt lat="46.78866" lon="5.6242">
        <ele>423</ele>
        <time>2021-10-28T08:21:16Z</time>
      </trkpt>
      <trkpt lat="46.78849" lon="5.62429">
        <ele>425</ele>
        <time>2021-10-28T08:21:33Z</time>
      </trkpt>
      <trkpt lat="46.78844" lon="5.62437">
        <ele>425</ele>
        <time>2021-10-28T08:21:41Z</time>
      </trkpt>
      <trkpt lat="46.78833" lon="5.62455">
        <ele>428</ele>
        <time>2021-10-28T08:22:00Z</time>
      </trkpt>
      <trkpt lat="46.78821" lon="5.62465">
        <ele>430</ele>
        <time>2021-10-28T08:22:14Z</time>
      </trkpt>
      <trkpt lat="46.7881" lon="5.62474">
        <ele>431</ele>
        <time>2021-10-28T08:22:25Z</time>
      </trkpt>
      <trkpt lat="46.78779" lon="5.62484">
        <ele>432</ele>
        <time>2021-10-28T08:22:53Z</time>
      </trkpt>
      <trkpt lat="46.7876" lon="5.62496">
        <ele>434</ele>
        <time>2021-10-28T08:23:18Z</time>
      </trkpt>
      <trkpt lat="46.78755" lon="5.62504">
        <ele>434</ele>
        <time>2021-10-28T08:23:26Z</time>
      </trkpt>
      <trkpt lat="46.78748" lon="5.62509">
        <ele>434</ele>
        <time>2021-10-28T08:23:35Z</time>
      </trkpt>
      <trkpt lat="46.7874" lon="5.62519">
        <ele>433</ele>
        <time>2021-10-28T08:23:50Z</time>
      </trkpt>
      <trkpt lat="46.78728" lon="5.62536">
        <ele>433</ele>
        <time>2021-10-28T08:24:06Z</time>
      </trkpt>
      <trkpt lat="46.78702" lon="5.62563">
        <ele>434</ele>
        <time>2021-10-28T08:24:26Z</time>
      </trkpt>
      <trkpt lat="46.78693" lon="5.62577">
        <ele>435</ele>
        <time>2021-10-28T08:24:40Z</time>
      </trkpt>
      <trkpt lat="46.7867" lon="5.62589">
        <ele>434</ele>
        <time>2021-10-28T08:25:01Z</time>
      </trkpt>
      <trkpt lat="46.78664" lon="5.62593">
        <ele>434</ele>
        <time>2021-10-28T08:25:08Z</time>
      </trkpt>
      <trkpt lat="46.78642" lon="5.62622">
        <ele>433</ele>
        <time>2021-10-28T08:25:40Z</time>
      </trkpt>
      <trkpt lat="46.78625" lon="5.62642">
        <ele>433</ele>
        <time>2021-10-28T08:26:00Z</time>
      </trkpt>
      <trkpt lat="46.78583" lon="5.62671">
        <ele>434</ele>
        <time>2021-10-28T08:26:34Z</time>
      </trkpt>
      <trkpt lat="46.78555" lon="5.62674">
        <ele>435</ele>
        <time>2021-10-28T08:27:02Z</time>
      </trkpt>
      <trkpt lat="46.78529" lon="5.62674">
        <ele>434</ele>
        <time>2021-10-28T08:27:24Z</time>
      </trkpt>
      <trkpt lat="46.78522" lon="5.6267">
        <ele>434</ele>
        <time>2021-10-28T08:27:34Z</time>
      </trkpt>
      <trkpt lat="46.78517" lon="5.62669">
        <ele>434</ele>
        <time>2021-10-28T08:27:38Z</time>
      </trkpt>
      <trkpt lat="46.78481" lon="5.6266">
        <ele>432</ele>
        <time>2021-10-28T08:28:09Z</time>
      </trkpt>
      <trkpt lat="46.7847" lon="5.62658">
        <ele>432</ele>
        <time>2021-10-28T08:28:18Z</time>
      </trkpt>
      <trkpt lat="46.78437" lon="5.62646">
        <ele>430</ele>
        <time>2021-10-28T08:28:53Z</time>
      </trkpt>
      <trkpt lat="46.78432" lon="5.62642">
        <ele>429</ele>
        <time>2021-10-28T08:28:58Z</time>
      </trkpt>
      <trkpt lat="46.78425" lon="5.62641">
        <ele>429</ele>
        <time>2021-10-28T08:29:03Z</time>
      </trkpt>
      <trkpt lat="46.78408" lon="5.62628">
        <ele>428</ele>
        <time>2021-10-28T08:29:20Z</time>
      </trkpt>
      <trkpt lat="46.78399" lon="5.62615">
        <ele>428</ele>
        <time>2021-10-28T08:29:32Z</time>
      </trkpt>
      <trkpt lat="46.78376" lon="5.626">
        <ele>426</ele>
        <time>2021-10-28T08:29:54Z</time>
      </trkpt>
      <trkpt lat="46.78373" lon="5.62594">
        <ele>426</ele>
        <time>2021-10-28T08:29:59Z</time>
      </trkpt>
      <trkpt lat="46.78363" lon="5.62582">
        <ele>425</ele>
        <time>2021-10-28T08:30:13Z</time>
      </trkpt>
      <trkpt lat="46.78349" lon="5.62568">
        <ele>425</ele>
        <time>2021-10-28T08:30:29Z</time>
      </trkpt>
      <trkpt lat="46.78333" lon="5.62547">
        <ele>424</ele>
        <time>2021-10-28T08:30:48Z</time>
      </trkpt>
      <trkpt lat="46.78301" lon="5.62518">
        <ele>424</ele>
        <time>2021-10-28T08:31:14Z</time>
      </trkpt>
      <trkpt lat="46.78298" lon="5.62511">
        <ele>424</ele>
        <time>2021-10-28T08:31:19Z</time>
      </trkpt>
      <trkpt lat="46.7829" lon="5.62508">
        <ele>425</ele>
        <time>2021-10-28T08:31:24Z</time>
      </trkpt>
      <trkpt lat="46.78286" lon="5.62503">
        <ele>425</ele>
        <time>2021-10-28T08:31:29Z</time>
      </trkpt>
      <trkpt lat="46.78282" lon="5.62497">
        <ele>426</ele>
        <time>2021-10-28T08:31:35Z</time>
      </trkpt>
      <trkpt lat="46.78276" lon="5.62494">
        <ele>426</ele>
        <time>2021-10-28T08:31:39Z</time>
      </trkpt>
      <trkpt lat="46.7827" lon="5.62493">
        <ele>426</ele>
        <time>2021-10-28T08:31:45Z</time>
      </trkpt>
      <trkpt lat="46.78256" lon="5.625">
        <ele>427</ele>
        <time>2021-10-28T08:31:59Z</time>
      </trkpt>
      <trkpt lat="46.7825" lon="5.62496">
        <ele>427</ele>
        <time>2021-10-28T08:32:04Z</time>
      </trkpt>
      <trkpt lat="46.78244" lon="5.62496">
        <ele>427</ele>
        <time>2021-10-28T08:32:09Z</time>
      </trkpt>
      <trkpt lat="46.78233" lon="5.62488">
        <ele>427</ele>
        <time>2021-10-28T08:32:23Z</time>
      </trkpt>
      <trkpt lat="46.78227" lon="5.62483">
        <ele>427</ele>
        <time>2021-10-28T08:33:29Z</time>
      </trkpt>
      <trkpt lat="46.78223" lon="5.62489">
        <ele>430</ele>
        <time>2021-10-28T08:36:28Z</time>
      </trkpt>
      <trkpt lat="46.78216" lon="5.62486">
        <ele>432</ele>
        <time>2021-10-28T08:40:14Z</time>
      </trkpt>
      <trkpt lat="46.78205" lon="5.62484">
        <ele>431</ele>
        <time>2021-10-28T08:40:24Z</time>
      </trkpt>
      <trkpt lat="46.78199" lon="5.62486">
        <ele>431</ele>
        <time>2021-10-28T08:40:29Z</time>
      </trkpt>
      <trkpt lat="46.78196" lon="5.62485">
        <ele>431</ele>
        <time>2021-10-28T08:40:32Z</time>
      </trkpt>
      <trkpt lat="46.78191" lon="5.62485">
        <ele>430</ele>
        <time>2021-10-28T08:40:36Z</time>
      </trkpt>
      <trkpt lat="46.78178" lon="5.62485">
        <ele>430</ele>
        <time>2021-10-28T08:40:46Z</time>
      </trkpt>
      <trkpt lat="46.78162" lon="5.62494">
        <ele>430</ele>
        <time>2021-10-28T08:41:01Z</time>
      </trkpt>
      <trkpt lat="46.78159" lon="5.62498">
        <ele>430</ele>
        <time>2021-10-28T08:41:04Z</time>
      </trkpt>
      <trkpt lat="46.78148" lon="5.6252">
        <ele>430</ele>
        <time>2021-10-28T08:41:21Z</time>
      </trkpt>
      <trkpt lat="46.78132" lon="5.62529">
        <ele>431</ele>
        <time>2021-10-28T08:41:33Z</time>
      </trkpt>
      <trkpt lat="46.78123" lon="5.62542">
        <ele>431</ele>
        <time>2021-10-28T08:41:42Z</time>
      </trkpt>
      <trkpt lat="46.78119" lon="5.62546">
        <ele>432</ele>
        <time>2021-10-28T08:41:47Z</time>
      </trkpt>
      <trkpt lat="46.78115" lon="5.62546">
        <ele>432</ele>
        <time>2021-10-28T08:41:51Z</time>
      </trkpt>
      <trkpt lat="46.78112" lon="5.62549">
        <ele>433</ele>
        <time>2021-10-28T08:41:55Z</time>
      </trkpt>
      <trkpt lat="46.781" lon="5.62554">
        <ele>434</ele>
        <time>2021-10-28T08:42:06Z</time>
      </trkpt>
      <trkpt lat="46.78092" lon="5.62554">
        <ele>435</ele>
        <time>2021-10-28T08:42:12Z</time>
      </trkpt>
      <trkpt lat="46.78075" lon="5.62558">
        <ele>435</ele>
        <time>2021-10-28T08:42:24Z</time>
      </trkpt>
      <trkpt lat="46.78071" lon="5.62557">
        <ele>435</ele>
        <time>2021-10-28T08:42:27Z</time>
      </trkpt>
      <trkpt lat="46.78057" lon="5.62554">
        <ele>435</ele>
        <time>2021-10-28T08:42:40Z</time>
      </trkpt>
      <trkpt lat="46.7805" lon="5.62556">
        <ele>436</ele>
        <time>2021-10-28T08:42:46Z</time>
      </trkpt>
      <trkpt lat="46.78045" lon="5.62555">
        <ele>436</ele>
        <time>2021-10-28T08:42:50Z</time>
      </trkpt>
      <trkpt lat="46.78008" lon="5.62555">
        <ele>435</ele>
        <time>2021-10-28T08:43:21Z</time>
      </trkpt>
      <trkpt lat="46.78003" lon="5.62555">
        <ele>435</ele>
        <time>2021-10-28T08:43:24Z</time>
      </trkpt>
      <trkpt lat="46.77999" lon="5.62553">
        <ele>435</ele>
        <time>2021-10-28T08:43:27Z</time>
      </trkpt>
      <trkpt lat="46.77977" lon="5.62551">
        <ele>435</ele>
        <time>2021-10-28T08:43:44Z</time>
      </trkpt>
      <trkpt lat="46.77973" lon="5.62552">
        <ele>435</ele>
        <time>2021-10-28T08:43:47Z</time>
      </trkpt>
      <trkpt lat="46.77966" lon="5.62552">
        <ele>435</ele>
        <time>2021-10-28T08:43:52Z</time>
      </trkpt>
      <trkpt lat="46.77954" lon="5.62559">
        <ele>436</ele>
        <time>2021-10-28T08:44:05Z</time>
      </trkpt>
      <trkpt lat="46.77944" lon="5.62569">
        <ele>437</ele>
        <time>2021-10-28T08:44:16Z</time>
      </trkpt>
      <trkpt lat="46.77941" lon="5.62573">
        <ele>438</ele>
        <time>2021-10-28T08:44:19Z</time>
      </trkpt>
      <trkpt lat="46.77937" lon="5.62576">
        <ele>438</ele>
        <time>2021-10-28T08:44:23Z</time>
      </trkpt>
      <trkpt lat="46.77929" lon="5.6258">
        <ele>439</ele>
        <time>2021-10-28T08:44:30Z</time>
      </trkpt>
      <trkpt lat="46.77926" lon="5.62583">
        <ele>439</ele>
        <time>2021-10-28T08:44:33Z</time>
      </trkpt>
      <trkpt lat="46.77914" lon="5.6259">
        <ele>440</ele>
        <time>2021-10-28T08:44:43Z</time>
      </trkpt>
      <trkpt lat="46.77911" lon="5.6259">
        <ele>440</ele>
        <time>2021-10-28T08:44:46Z</time>
      </trkpt>
      <trkpt lat="46.77907" lon="5.62592">
        <ele>441</ele>
        <time>2021-10-28T08:44:49Z</time>
      </trkpt>
      <trkpt lat="46.77903" lon="5.62592">
        <ele>441</ele>
        <time>2021-10-28T08:44:54Z</time>
      </trkpt>
      <trkpt lat="46.77899" lon="5.6259">
        <ele>441</ele>
        <time>2021-10-28T08:44:57Z</time>
      </trkpt>
      <trkpt lat="46.77887" lon="5.62586">
        <ele>441</ele>
        <time>2021-10-28T08:45:08Z</time>
      </trkpt>
      <trkpt lat="46.77884" lon="5.62585">
        <ele>441</ele>
        <time>2021-10-28T08:45:12Z</time>
      </trkpt>
      <trkpt lat="46.77878" lon="5.62583">
        <ele>442</ele>
        <time>2021-10-28T08:45:17Z</time>
      </trkpt>
      <trkpt lat="46.77873" lon="5.6258">
        <ele>441</ele>
        <time>2021-10-28T08:45:23Z</time>
      </trkpt>
      <trkpt lat="46.77867" lon="5.62578">
        <ele>440</ele>
        <time>2021-10-28T08:45:28Z</time>
      </trkpt>
      <trkpt lat="46.7786" lon="5.62577">
        <ele>440</ele>
        <time>2021-10-28T08:45:34Z</time>
      </trkpt>
      <trkpt lat="46.77836" lon="5.62579">
        <ele>440</ele>
        <time>2021-10-28T08:45:55Z</time>
      </trkpt>
      <trkpt lat="46.7783" lon="5.62578">
        <ele>440</ele>
        <time>2021-10-28T08:46:00Z</time>
      </trkpt>
      <trkpt lat="46.77823" lon="5.62579">
        <ele>440</ele>
        <time>2021-10-28T08:46:04Z</time>
      </trkpt>
      <trkpt lat="46.77811" lon="5.62578">
        <ele>441</ele>
        <time>2021-10-28T08:46:15Z</time>
      </trkpt>
      <trkpt lat="46.77794" lon="5.62584">
        <ele>441</ele>
        <time>2021-10-28T08:46:31Z</time>
      </trkpt>
      <trkpt lat="46.77762" lon="5.62616">
        <ele>441</ele>
        <time>2021-10-28T08:47:04Z</time>
      </trkpt>
      <trkpt lat="46.77756" lon="5.6262">
        <ele>441</ele>
        <time>2021-10-28T08:47:09Z</time>
      </trkpt>
      <trkpt lat="46.77737" lon="5.62644">
        <ele>441</ele>
        <time>2021-10-28T08:47:27Z</time>
      </trkpt>
      <trkpt lat="46.77733" lon="5.62654">
        <ele>441</ele>
        <time>2021-10-28T08:47:35Z</time>
      </trkpt>
      <trkpt lat="46.77727" lon="5.62661">
        <ele>441</ele>
        <time>2021-10-28T08:47:41Z</time>
      </trkpt>
      <trkpt lat="46.77725" lon="5.62668">
        <ele>441</ele>
        <time>2021-10-28T08:47:44Z</time>
      </trkpt>
      <trkpt lat="46.77722" lon="5.62672">
        <ele>441</ele>
        <time>2021-10-28T08:47:47Z</time>
      </trkpt>
      <trkpt lat="46.77721" lon="5.62678">
        <ele>441</ele>
        <time>2021-10-28T08:47:51Z</time>
      </trkpt>
      <trkpt lat="46.77718" lon="5.62682">
        <ele>441</ele>
        <time>2021-10-28T08:47:55Z</time>
      </trkpt>
      <trkpt lat="46.77713" lon="5.62692">
        <ele>442</ele>
        <time>2021-10-28T08:48:02Z</time>
      </trkpt>
      <trkpt lat="46.77708" lon="5.62702">
        <ele>442</ele>
        <time>2021-10-28T08:48:08Z</time>
      </trkpt>
      <trkpt lat="46.777" lon="5.62722">
        <ele>443</ele>
        <time>2021-10-28T08:48:21Z</time>
      </trkpt>
      <trkpt lat="46.77691" lon="5.62735">
        <ele>443</ele>
        <time>2021-10-28T08:48:32Z</time>
      </trkpt>
      <trkpt lat="46.7769" lon="5.62741">
        <ele>443</ele>
        <time>2021-10-28T08:48:35Z</time>
      </trkpt>
      <trkpt lat="46.77685" lon="5.6275">
        <ele>444</ele>
        <time>2021-10-28T08:48:42Z</time>
      </trkpt>
      <trkpt lat="46.77682" lon="5.62755">
        <ele>444</ele>
        <time>2021-10-28T08:48:45Z</time>
      </trkpt>
      <trkpt lat="46.77677" lon="5.62772">
        <ele>445</ele>
        <time>2021-10-28T08:48:56Z</time>
      </trkpt>
      <trkpt lat="46.77673" lon="5.6278">
        <ele>445</ele>
        <time>2021-10-28T08:49:01Z</time>
      </trkpt>
      <trkpt lat="46.77661" lon="5.62812">
        <ele>448</ele>
        <time>2021-10-28T08:49:23Z</time>
      </trkpt>
      <trkpt lat="46.77657" lon="5.62818">
        <ele>448</ele>
        <time>2021-10-28T08:49:29Z</time>
      </trkpt>
      <trkpt lat="46.77654" lon="5.62822">
        <ele>449</ele>
        <time>2021-10-28T08:49:32Z</time>
      </trkpt>
      <trkpt lat="46.77651" lon="5.62827">
        <ele>449</ele>
        <time>2021-10-28T08:49:36Z</time>
      </trkpt>
      <trkpt lat="46.77647" lon="5.6283">
        <ele>449</ele>
        <time>2021-10-28T08:49:40Z</time>
      </trkpt>
      <trkpt lat="46.77642" lon="5.62839">
        <ele>449</ele>
        <time>2021-10-28T08:49:47Z</time>
      </trkpt>
      <trkpt lat="46.7764" lon="5.62845">
        <ele>449</ele>
        <time>2021-10-28T08:49:51Z</time>
      </trkpt>
      <trkpt lat="46.77637" lon="5.62849">
        <ele>449</ele>
        <time>2021-10-28T08:49:55Z</time>
      </trkpt>
      <trkpt lat="46.77634" lon="5.62851">
        <ele>449</ele>
        <time>2021-10-28T08:49:59Z</time>
      </trkpt>
      <trkpt lat="46.7763" lon="5.62861">
        <ele>451</ele>
        <time>2021-10-28T08:50:06Z</time>
      </trkpt>
      <trkpt lat="46.77625" lon="5.62865">
        <ele>450</ele>
        <time>2021-10-28T08:50:12Z</time>
      </trkpt>
      <trkpt lat="46.77614" lon="5.6287">
        <ele>450</ele>
        <time>2021-10-28T08:50:21Z</time>
      </trkpt>
      <trkpt lat="46.77598" lon="5.6286">
        <ele>451</ele>
        <time>2021-10-28T08:50:38Z</time>
      </trkpt>
      <trkpt lat="46.77593" lon="5.62859">
        <ele>451</ele>
        <time>2021-10-28T08:50:42Z</time>
      </trkpt>
      <trkpt lat="46.77589" lon="5.62856">
        <ele>451</ele>
        <time>2021-10-28T08:50:46Z</time>
      </trkpt>
      <trkpt lat="46.77552" lon="5.62847">
        <ele>448</ele>
        <time>2021-10-28T08:51:18Z</time>
      </trkpt>
      <trkpt lat="46.7754" lon="5.62844">
        <ele>448</ele>
        <time>2021-10-28T08:51:27Z</time>
      </trkpt>
      <trkpt lat="46.77536" lon="5.62844">
        <ele>447</ele>
        <time>2021-10-28T08:51:31Z</time>
      </trkpt>
      <trkpt lat="46.77532" lon="5.62843">
        <ele>447</ele>
        <time>2021-10-28T08:51:35Z</time>
      </trkpt>
      <trkpt lat="46.77513" lon="5.6284">
        <ele>446</ele>
        <time>2021-10-28T08:51:50Z</time>
      </trkpt>
      <trkpt lat="46.77507" lon="5.62837">
        <ele>446</ele>
        <time>2021-10-28T08:51:56Z</time>
      </trkpt>
      <trkpt lat="46.775" lon="5.62838">
        <ele>445</ele>
        <time>2021-10-28T08:52:04Z</time>
      </trkpt>
      <trkpt lat="46.77493" lon="5.62834">
        <ele>445</ele>
        <time>2021-10-28T08:52:16Z</time>
      </trkpt>
      <trkpt lat="46.77488" lon="5.62832">
        <ele>445</ele>
        <time>2021-10-28T08:52:21Z</time>
      </trkpt>
      <trkpt lat="46.77482" lon="5.62825">
        <ele>444</ele>
        <time>2021-10-28T08:52:31Z</time>
      </trkpt>
      <trkpt lat="46.77475" lon="5.62817">
        <ele>444</ele>
        <time>2021-10-28T08:52:55Z</time>
      </trkpt>
      <trkpt lat="46.77473" lon="5.6281">
        <ele>444</ele>
        <time>2021-10-28T08:52:59Z</time>
      </trkpt>
      <trkpt lat="46.77468" lon="5.62808">
        <ele>443</ele>
        <time>2021-10-28T08:53:07Z</time>
      </trkpt>
      <trkpt lat="46.77463" lon="5.62801">
        <ele>443</ele>
        <time>2021-10-28T08:53:21Z</time>
      </trkpt>
      <trkpt lat="46.77453" lon="5.62783">
        <ele>442</ele>
        <time>2021-10-28T08:53:32Z</time>
      </trkpt>
      <trkpt lat="46.7745" lon="5.62776">
        <ele>441</ele>
        <time>2021-10-28T08:53:36Z</time>
      </trkpt>
      <trkpt lat="46.77445" lon="5.6277">
        <ele>441</ele>
        <time>2021-10-28T08:53:41Z</time>
      </trkpt>
      <trkpt lat="46.77416" lon="5.62738">
        <ele>438</ele>
        <time>2021-10-28T08:54:12Z</time>
      </trkpt>
      <trkpt lat="46.77392" lon="5.62711">
        <ele>434</ele>
        <time>2021-10-28T08:54:43Z</time>
      </trkpt>
      <trkpt lat="46.77387" lon="5.62706">
        <ele>433</ele>
        <time>2021-10-28T08:54:48Z</time>
      </trkpt>
      <trkpt lat="46.77383" lon="5.627">
        <ele>433</ele>
        <time>2021-10-28T08:54:53Z</time>
      </trkpt>
      <trkpt lat="46.77379" lon="5.62696">
        <ele>432</ele>
        <time>2021-10-28T08:54:58Z</time>
      </trkpt>
      <trkpt lat="46.77362" lon="5.62693">
        <ele>430</ele>
        <time>2021-10-28T08:55:17Z</time>
      </trkpt>
      <trkpt lat="46.77358" lon="5.62694">
        <ele>429</ele>
        <time>2021-10-28T08:55:20Z</time>
      </trkpt>
      <trkpt lat="46.77354" lon="5.62694">
        <ele>429</ele>
        <time>2021-10-28T08:55:23Z</time>
      </trkpt>
      <trkpt lat="46.77349" lon="5.62692">
        <ele>428</ele>
        <time>2021-10-28T08:55:30Z</time>
      </trkpt>
      <trkpt lat="46.77338" lon="5.62693">
        <ele>428</ele>
        <time>2021-10-28T08:55:40Z</time>
      </trkpt>
      <trkpt lat="46.77325" lon="5.62686">
        <ele>426</ele>
        <time>2021-10-28T08:55:55Z</time>
      </trkpt>
      <trkpt lat="46.7732" lon="5.62681">
        <ele>425</ele>
        <time>2021-10-28T08:55:59Z</time>
      </trkpt>
      <trkpt lat="46.77317" lon="5.62674">
        <ele>424</ele>
        <time>2021-10-28T08:56:03Z</time>
      </trkpt>
      <trkpt lat="46.77315" lon="5.62667">
        <ele>424</ele>
        <time>2021-10-28T08:56:07Z</time>
      </trkpt>
      <trkpt lat="46.7731" lon="5.62663">
        <ele>423</ele>
        <time>2021-10-28T08:56:15Z</time>
      </trkpt>
      <trkpt lat="46.77303" lon="5.62647">
        <ele>421</ele>
        <time>2021-10-28T08:56:26Z</time>
      </trkpt>
      <trkpt lat="46.77298" lon="5.62643">
        <ele>420</ele>
        <time>2021-10-28T08:56:31Z</time>
      </trkpt>
      <trkpt lat="46.77293" lon="5.62636">
        <ele>420</ele>
        <time>2021-10-28T08:56:35Z</time>
      </trkpt>
      <trkpt lat="46.77285" lon="5.62614">
        <ele>418</ele>
        <time>2021-10-28T08:56:54Z</time>
      </trkpt>
      <trkpt lat="46.77279" lon="5.62606">
        <ele>417</ele>
        <time>2021-10-28T08:57:01Z</time>
      </trkpt>
      <trkpt lat="46.77273" lon="5.62593">
        <ele>416</ele>
        <time>2021-10-28T08:57:10Z</time>
      </trkpt>
      <trkpt lat="46.7727" lon="5.6259">
        <ele>415</ele>
        <time>2021-10-28T08:57:13Z</time>
      </trkpt>
      <trkpt lat="46.77269" lon="5.62586">
        <ele>415</ele>
        <time>2021-10-28T08:57:16Z</time>
      </trkpt>
      <trkpt lat="46.77244" lon="5.62555">
        <ele>411</ele>
        <time>2021-10-28T08:57:47Z</time>
      </trkpt>
      <trkpt lat="46.77232" lon="5.62541">
        <ele>410</ele>
        <time>2021-10-28T08:58:01Z</time>
      </trkpt>
      <trkpt lat="46.77221" lon="5.62533">
        <ele>408</ele>
        <time>2021-10-28T08:58:17Z</time>
      </trkpt>
      <trkpt lat="46.7721" lon="5.62517">
        <ele>407</ele>
        <time>2021-10-28T08:58:33Z</time>
      </trkpt>
      <trkpt lat="46.77205" lon="5.62508">
        <ele>406</ele>
        <time>2021-10-28T08:58:41Z</time>
      </trkpt>
      <trkpt lat="46.77202" lon="5.62502">
        <ele>406</ele>
        <time>2021-10-28T08:58:45Z</time>
      </trkpt>
      <trkpt lat="46.77197" lon="5.62496">
        <ele>406</ele>
        <time>2021-10-28T08:58:51Z</time>
      </trkpt>
      <trkpt lat="46.7719" lon="5.62485">
        <ele>405</ele>
        <time>2021-10-28T08:59:03Z</time>
      </trkpt>
      <trkpt lat="46.77184" lon="5.62484">
        <ele>404</ele>
        <time>2021-10-28T08:59:35Z</time>
      </trkpt>
      <trkpt lat="46.77171" lon="5.62474">
        <ele>403</ele>
        <time>2021-10-28T08:59:50Z</time>
      </trkpt>
      <trkpt lat="46.77165" lon="5.62464">
        <ele>402</ele>
        <time>2021-10-28T08:59:57Z</time>
      </trkpt>
      <trkpt lat="46.77162" lon="5.6246">
        <ele>402</ele>
        <time>2021-10-28T09:00:01Z</time>
      </trkpt>
      <trkpt lat="46.77159" lon="5.62455">
        <ele>402</ele>
        <time>2021-10-28T09:00:05Z</time>
      </trkpt>
      <trkpt lat="46.77143" lon="5.6244">
        <ele>400</ele>
        <time>2021-10-28T09:00:23Z</time>
      </trkpt>
      <trkpt lat="46.77131" lon="5.62433">
        <ele>399</ele>
        <time>2021-10-28T09:00:34Z</time>
      </trkpt>
      <trkpt lat="46.77128" lon="5.6243">
        <ele>398</ele>
        <time>2021-10-28T09:00:36Z</time>
      </trkpt>
      <trkpt lat="46.77124" lon="5.62427">
        <ele>399</ele>
        <time>2021-10-28T09:00:39Z</time>
      </trkpt>
      <trkpt lat="46.77121" lon="5.62419">
        <ele>398</ele>
        <time>2021-10-28T09:00:44Z</time>
      </trkpt>
      <trkpt lat="46.77112" lon="5.62417">
        <ele>397</ele>
        <time>2021-10-28T09:00:51Z</time>
      </trkpt>
      <trkpt lat="46.77109" lon="5.62415">
        <ele>398</ele>
        <time>2021-10-28T09:00:54Z</time>
      </trkpt>
      <trkpt lat="46.77077" lon="5.62385">
        <ele>396</ele>
        <time>2021-10-28T09:01:25Z</time>
      </trkpt>
      <trkpt lat="46.77058" lon="5.62373">
        <ele>395</ele>
        <time>2021-10-28T09:01:43Z</time>
      </trkpt>
      <trkpt lat="46.77049" lon="5.62366">
        <ele>395</ele>
        <time>2021-10-28T09:01:51Z</time>
      </trkpt>
      <trkpt lat="46.77043" lon="5.62363">
        <ele>395</ele>
        <time>2021-10-28T09:01:57Z</time>
      </trkpt>
      <trkpt lat="46.77039" lon="5.62361">
        <ele>395</ele>
        <time>2021-10-28T09:02:01Z</time>
      </trkpt>
      <trkpt lat="46.77033" lon="5.62354">
        <ele>394</ele>
        <time>2021-10-28T09:02:07Z</time>
      </trkpt>
      <trkpt lat="46.77029" lon="5.62352">
        <ele>394</ele>
        <time>2021-10-28T09:02:10Z</time>
      </trkpt>
      <trkpt lat="46.77013" lon="5.62349">
        <ele>394</ele>
        <time>2021-10-28T09:02:22Z</time>
      </trkpt>
      <trkpt lat="46.77005" lon="5.62343">
        <ele>394</ele>
        <time>2021-10-28T09:02:29Z</time>
      </trkpt>
      <trkpt lat="46.76984" lon="5.6234">
        <ele>394</ele>
        <time>2021-10-28T09:02:46Z</time>
      </trkpt>
      <trkpt lat="46.76979" lon="5.62336">
        <ele>395</ele>
        <time>2021-10-28T09:02:51Z</time>
      </trkpt>
      <trkpt lat="46.76967" lon="5.62335">
        <ele>393</ele>
        <time>2021-10-28T09:03:02Z</time>
      </trkpt>
      <trkpt lat="46.76954" lon="5.62332">
        <ele>393</ele>
        <time>2021-10-28T09:03:12Z</time>
      </trkpt>
      <trkpt lat="46.76942" lon="5.62333">
        <ele>393</ele>
        <time>2021-10-28T09:03:22Z</time>
      </trkpt>
      <trkpt lat="46.76937" lon="5.62331">
        <ele>392</ele>
        <time>2021-10-28T09:03:29Z</time>
      </trkpt>
      <trkpt lat="46.76907" lon="5.62321">
        <ele>392</ele>
        <time>2021-10-28T09:03:58Z</time>
      </trkpt>
      <trkpt lat="46.76901" lon="5.62319">
        <ele>393</ele>
        <time>2021-10-28T09:04:16Z</time>
      </trkpt>
      <trkpt lat="46.76891" lon="5.62329">
        <ele>393</ele>
        <time>2021-10-28T09:04:50Z</time>
      </trkpt>
      <trkpt lat="46.76886" lon="5.62344">
        <ele>395</ele>
        <time>2021-10-28T09:04:59Z</time>
      </trkpt>
      <trkpt lat="46.76888" lon="5.62356">
        <ele>396</ele>
        <time>2021-10-28T09:05:07Z</time>
      </trkpt>
      <trkpt lat="46.76887" lon="5.62367">
        <ele>397</ele>
        <time>2021-10-28T09:05:15Z</time>
      </trkpt>
      <trkpt lat="46.76887" lon="5.62376">
        <ele>397</ele>
        <time>2021-10-28T09:05:20Z</time>
      </trkpt>
      <trkpt lat="46.76883" lon="5.62385">
        <ele>399</ele>
        <time>2021-10-28T09:05:30Z</time>
      </trkpt>
      <trkpt lat="46.76881" lon="5.62394">
        <ele>399</ele>
        <time>2021-10-28T09:05:36Z</time>
      </trkpt>
      <trkpt lat="46.76883" lon="5.62403">
        <ele>401</ele>
        <time>2021-10-28T09:05:47Z</time>
      </trkpt>
      <trkpt lat="46.76896" lon="5.62411">
        <ele>404</ele>
        <time>2021-10-28T09:06:05Z</time>
      </trkpt>
      <trkpt lat="46.76897" lon="5.62427">
        <ele>405</ele>
        <time>2021-10-28T09:06:38Z</time>
      </trkpt>
      <trkpt lat="46.76903" lon="5.62434">
        <ele>409</ele>
        <time>2021-10-28T09:06:51Z</time>
      </trkpt>
      <trkpt lat="46.76907" lon="5.62442">
        <ele>411</ele>
        <time>2021-10-28T09:07:03Z</time>
      </trkpt>
      <trkpt lat="46.76911" lon="5.62454">
        <ele>410</ele>
        <time>2021-10-28T09:07:15Z</time>
      </trkpt>
      <trkpt lat="46.76913" lon="5.62462">
        <ele>413</ele>
        <time>2021-10-28T09:07:21Z</time>
      </trkpt>
      <trkpt lat="46.76917" lon="5.6247">
        <ele>413</ele>
        <time>2021-10-28T09:07:29Z</time>
      </trkpt>
      <trkpt lat="46.76923" lon="5.62475">
        <ele>414</ele>
        <time>2021-10-28T09:07:41Z</time>
      </trkpt>
      <trkpt lat="46.76936" lon="5.6248">
        <ele>416</ele>
        <time>2021-10-28T09:07:58Z</time>
      </trkpt>
      <trkpt lat="46.7695" lon="5.62492">
        <ele>416</ele>
        <time>2021-10-28T09:08:15Z</time>
      </trkpt>
      <trkpt lat="46.76955" lon="5.62495">
        <ele>416</ele>
        <time>2021-10-28T09:08:20Z</time>
      </trkpt>
      <trkpt lat="46.7696" lon="5.62499">
        <ele>417</ele>
        <time>2021-10-28T09:08:25Z</time>
      </trkpt>
      <trkpt lat="46.76967" lon="5.62505">
        <ele>418</ele>
        <time>2021-10-28T09:08:40Z</time>
      </trkpt>
      <trkpt lat="46.76969" lon="5.62519">
        <ele>420</ele>
        <time>2021-10-28T09:08:53Z</time>
      </trkpt>
      <trkpt lat="46.76971" lon="5.62537">
        <ele>421</ele>
        <time>2021-10-28T09:09:08Z</time>
      </trkpt>
      <trkpt lat="46.76973" lon="5.62546">
        <ele>424</ele>
        <time>2021-10-28T09:09:19Z</time>
      </trkpt>
      <trkpt lat="46.76974" lon="5.6256">
        <ele>424</ele>
        <time>2021-10-28T09:09:30Z</time>
      </trkpt>
      <trkpt lat="46.76978" lon="5.6257">
        <ele>427</ele>
        <time>2021-10-28T09:09:41Z</time>
      </trkpt>
      <trkpt lat="46.76981" lon="5.6258">
        <ele>429</ele>
        <time>2021-10-28T09:10:01Z</time>
      </trkpt>
      <trkpt lat="46.76984" lon="5.62594">
        <ele>433</ele>
        <time>2021-10-28T09:10:22Z</time>
      </trkpt>
      <trkpt lat="46.76987" lon="5.62599">
        <ele>436</ele>
        <time>2021-10-28T09:12:42Z</time>
      </trkpt>
      <trkpt lat="46.76992" lon="5.6261">
        <ele>439</ele>
        <time>2021-10-28T09:13:45Z</time>
      </trkpt>
      <trkpt lat="46.76987" lon="5.62622">
        <ele>443</ele>
        <time>2021-10-28T09:14:09Z</time>
      </trkpt>
      <trkpt lat="46.76995" lon="5.62639">
        <ele>448</ele>
        <time>2021-10-28T09:14:36Z</time>
      </trkpt>
      <trkpt lat="46.76998" lon="5.62649">
        <ele>451</ele>
        <time>2021-10-28T09:14:52Z</time>
      </trkpt>
      <trkpt lat="46.77006" lon="5.62654">
        <ele>452</ele>
        <time>2021-10-28T09:15:04Z</time>
      </trkpt>
      <trkpt lat="46.77006" lon="5.62667">
        <ele>455</ele>
        <time>2021-10-28T09:15:22Z</time>
      </trkpt>
      <trkpt lat="46.77003" lon="5.62666">
        <ele>463</ele>
        <time>2021-10-28T09:16:23Z</time>
      </trkpt>
      <trkpt lat="46.77" lon="5.62673">
        <ele>464</ele>
        <time>2021-10-28T09:16:34Z</time>
      </trkpt>
      <trkpt lat="46.76994" lon="5.62676">
        <ele>468</ele>
        <time>2021-10-28T09:16:54Z</time>
      </trkpt>
      <trkpt lat="46.76988" lon="5.62678">
        <ele>470</ele>
        <time>2021-10-28T09:17:04Z</time>
      </trkpt>
      <trkpt lat="46.76979" lon="5.6269">
        <ele>475</ele>
        <time>2021-10-28T09:17:36Z</time>
      </trkpt>
      <trkpt lat="46.76974" lon="5.62691">
        <ele>476</ele>
        <time>2021-10-28T09:18:12Z</time>
      </trkpt>
      <trkpt lat="46.76949" lon="5.6266">
        <ele>477</ele>
        <time>2021-10-28T09:18:43Z</time>
      </trkpt>
      <trkpt lat="46.76942" lon="5.62659">
        <ele>477</ele>
        <time>2021-10-28T09:18:51Z</time>
      </trkpt>
      <trkpt lat="46.76935" lon="5.62658">
        <ele>477</ele>
        <time>2021-10-28T09:18:58Z</time>
      </trkpt>
      <trkpt lat="46.76926" lon="5.62653">
        <ele>479</ele>
        <time>2021-10-28T09:19:08Z</time>
      </trkpt>
      <trkpt lat="46.76905" lon="5.62644">
        <ele>480</ele>
        <time>2021-10-28T09:19:29Z</time>
      </trkpt>
      <trkpt lat="46.76889" lon="5.62637">
        <ele>479</ele>
        <time>2021-10-28T09:19:45Z</time>
      </trkpt>
      <trkpt lat="46.76861" lon="5.62631">
        <ele>481</ele>
        <time>2021-10-28T09:20:12Z</time>
      </trkpt>
      <trkpt lat="46.76854" lon="5.62629">
        <ele>481</ele>
        <time>2021-10-28T09:20:20Z</time>
      </trkpt>
      <trkpt lat="46.76848" lon="5.62625">
        <ele>482</ele>
        <time>2021-10-28T09:20:27Z</time>
      </trkpt>
      <trkpt lat="46.76837" lon="5.62622">
        <ele>482</ele>
        <time>2021-10-28T09:20:38Z</time>
      </trkpt>
      <trkpt lat="46.76827" lon="5.62617">
        <ele>483</ele>
        <time>2021-10-28T09:20:49Z</time>
      </trkpt>
      <trkpt lat="46.76815" lon="5.6261">
        <ele>484</ele>
        <time>2021-10-28T09:20:57Z</time>
      </trkpt>
      <trkpt lat="46.76809" lon="5.62608">
        <ele>484</ele>
        <time>2021-10-28T09:21:03Z</time>
      </trkpt>
      <trkpt lat="46.76804" lon="5.62604">
        <ele>484</ele>
        <time>2021-10-28T09:21:11Z</time>
      </trkpt>
      <trkpt lat="46.76799" lon="5.626">
        <ele>485</ele>
        <time>2021-10-28T09:21:17Z</time>
      </trkpt>
      <trkpt lat="46.76797" lon="5.62595">
        <ele>484</ele>
        <time>2021-10-28T09:22:01Z</time>
      </trkpt>
      <trkpt lat="46.76793" lon="5.62592">
        <ele>484</ele>
        <time>2021-10-28T09:22:13Z</time>
      </trkpt>
      <trkpt lat="46.76794" lon="5.62587">
        <ele>482</ele>
        <time>2021-10-28T09:23:30Z</time>
      </trkpt>
      <trkpt lat="46.76791" lon="5.62579">
        <ele>482</ele>
        <time>2021-10-28T09:24:01Z</time>
      </trkpt>
      <trkpt lat="46.76787" lon="5.62585">
        <ele>481</ele>
        <time>2021-10-28T09:27:16Z</time>
      </trkpt>
      <trkpt lat="46.76795" lon="5.62593">
        <ele>481</ele>
        <time>2021-10-28T09:27:46Z</time>
      </trkpt>
      <trkpt lat="46.76789" lon="5.62599">
        <ele>481</ele>
        <time>2021-10-28T09:28:54Z</time>
      </trkpt>
      <trkpt lat="46.76781" lon="5.626">
        <ele>480</ele>
        <time>2021-10-28T09:29:04Z</time>
      </trkpt>
      <trkpt lat="46.76775" lon="5.62597">
        <ele>480</ele>
        <time>2021-10-28T09:29:10Z</time>
      </trkpt>
      <trkpt lat="46.76769" lon="5.62609">
        <ele>479</ele>
        <time>2021-10-28T09:29:21Z</time>
      </trkpt>
      <trkpt lat="46.76767" lon="5.62617">
        <ele>479</ele>
        <time>2021-10-28T09:29:26Z</time>
      </trkpt>
      <trkpt lat="46.76761" lon="5.62635">
        <ele>480</ele>
        <time>2021-10-28T09:30:27Z</time>
      </trkpt>
      <trkpt lat="46.76759" lon="5.62642">
        <ele>480</ele>
        <time>2021-10-28T09:30:31Z</time>
      </trkpt>
      <trkpt lat="46.76756" lon="5.62661">
        <ele>481</ele>
        <time>2021-10-28T09:30:46Z</time>
      </trkpt>
      <trkpt lat="46.76755" lon="5.62669">
        <ele>481</ele>
        <time>2021-10-28T09:30:51Z</time>
      </trkpt>
      <trkpt lat="46.76752" lon="5.62678">
        <ele>480</ele>
        <time>2021-10-28T09:30:56Z</time>
      </trkpt>
      <trkpt lat="46.76747" lon="5.62696">
        <ele>480</ele>
        <time>2021-10-28T09:31:11Z</time>
      </trkpt>
      <trkpt lat="46.76737" lon="5.62717">
        <ele>478</ele>
        <time>2021-10-28T09:31:29Z</time>
      </trkpt>
      <trkpt lat="46.76708" lon="5.62748">
        <ele>475</ele>
        <time>2021-10-28T09:32:03Z</time>
      </trkpt>
      <trkpt lat="46.767" lon="5.6277">
        <ele>474</ele>
        <time>2021-10-28T09:32:15Z</time>
      </trkpt>
      <trkpt lat="46.76697" lon="5.62777">
        <ele>473</ele>
        <time>2021-10-28T09:32:21Z</time>
      </trkpt>
      <trkpt lat="46.76695" lon="5.62786">
        <ele>473</ele>
        <time>2021-10-28T09:32:26Z</time>
      </trkpt>
      <trkpt lat="46.76696" lon="5.62795">
        <ele>473</ele>
        <time>2021-10-28T09:32:31Z</time>
      </trkpt>
      <trkpt lat="46.76697" lon="5.62802">
        <ele>474</ele>
        <time>2021-10-28T09:32:36Z</time>
      </trkpt>
      <trkpt lat="46.76697" lon="5.6281">
        <ele>474</ele>
        <time>2021-10-28T09:32:41Z</time>
      </trkpt>
      <trkpt lat="46.76699" lon="5.62821">
        <ele>475</ele>
        <time>2021-10-28T09:32:49Z</time>
      </trkpt>
      <trkpt lat="46.76703" lon="5.62845">
        <ele>477</ele>
        <time>2021-10-28T09:33:10Z</time>
      </trkpt>
      <trkpt lat="46.76702" lon="5.6286">
        <ele>476</ele>
        <time>2021-10-28T09:33:23Z</time>
      </trkpt>
      <trkpt lat="46.76703" lon="5.62868">
        <ele>476</ele>
        <time>2021-10-28T09:33:29Z</time>
      </trkpt>
      <trkpt lat="46.76713" lon="5.62877">
        <ele>476</ele>
        <time>2021-10-28T09:33:39Z</time>
      </trkpt>
      <trkpt lat="46.76716" lon="5.62885">
        <ele>476</ele>
        <time>2021-10-28T09:33:43Z</time>
      </trkpt>
      <trkpt lat="46.76723" lon="5.62891">
        <ele>475</ele>
        <time>2021-10-28T09:33:51Z</time>
      </trkpt>
      <trkpt lat="46.76724" lon="5.62902">
        <ele>476</ele>
        <time>2021-10-28T09:33:58Z</time>
      </trkpt>
      <trkpt lat="46.76725" lon="5.6291">
        <ele>474</ele>
        <time>2021-10-28T09:34:08Z</time>
      </trkpt>
      <trkpt lat="46.76708" lon="5.62957">
        <ele>469</ele>
        <time>2021-10-28T09:34:48Z</time>
      </trkpt>
      <trkpt lat="46.76706" lon="5.62968">
        <ele>469</ele>
        <time>2021-10-28T09:34:54Z</time>
      </trkpt>
      <trkpt lat="46.76703" lon="5.62978">
        <ele>469</ele>
        <time>2021-10-28T09:35:00Z</time>
      </trkpt>
      <trkpt lat="46.76706" lon="5.62996">
        <ele>469</ele>
        <time>2021-10-28T09:35:15Z</time>
      </trkpt>
      <trkpt lat="46.76707" lon="5.63005">
        <ele>469</ele>
        <time>2021-10-28T09:35:19Z</time>
      </trkpt>
      <trkpt lat="46.76711" lon="5.6302">
        <ele>468</ele>
        <time>2021-10-28T09:35:28Z</time>
      </trkpt>
      <trkpt lat="46.7671" lon="5.63034">
        <ele>467</ele>
        <time>2021-10-28T09:35:38Z</time>
      </trkpt>
      <trkpt lat="46.7671" lon="5.63042">
        <ele>466</ele>
        <time>2021-10-28T09:35:45Z</time>
      </trkpt>
      <trkpt lat="46.76714" lon="5.63049">
        <ele>466</ele>
        <time>2021-10-28T09:35:51Z</time>
      </trkpt>
      <trkpt lat="46.76718" lon="5.63054">
        <ele>466</ele>
        <time>2021-10-28T09:35:56Z</time>
      </trkpt>
      <trkpt lat="46.76723" lon="5.63059">
        <ele>467</ele>
        <time>2021-10-28T09:36:02Z</time>
      </trkpt>
      <trkpt lat="46.76732" lon="5.63064">
        <ele>468</ele>
        <time>2021-10-28T09:36:13Z</time>
      </trkpt>
      <trkpt lat="46.76737" lon="5.63067">
        <ele>470</ele>
        <time>2021-10-28T09:36:22Z</time>
      </trkpt>
      <trkpt lat="46.76747" lon="5.63076">
        <ele>471</ele>
        <time>2021-10-28T09:36:34Z</time>
      </trkpt>
      <trkpt lat="46.76751" lon="5.63083">
        <ele>471</ele>
        <time>2021-10-28T09:36:42Z</time>
      </trkpt>
      <trkpt lat="46.76756" lon="5.63088">
        <ele>471</ele>
        <time>2021-10-28T09:36:47Z</time>
      </trkpt>
      <trkpt lat="46.76762" lon="5.6309">
        <ele>472</ele>
        <time>2021-10-28T09:36:52Z</time>
      </trkpt>
      <trkpt lat="46.76773" lon="5.63103">
        <ele>473</ele>
        <time>2021-10-28T09:37:08Z</time>
      </trkpt>
      <trkpt lat="46.76787" lon="5.63108">
        <ele>474</ele>
        <time>2021-10-28T09:37:21Z</time>
      </trkpt>
      <trkpt lat="46.76792" lon="5.63113">
        <ele>474</ele>
        <time>2021-10-28T09:37:26Z</time>
      </trkpt>
      <trkpt lat="46.76796" lon="5.6312">
        <ele>474</ele>
        <time>2021-10-28T09:37:32Z</time>
      </trkpt>
      <trkpt lat="46.768" lon="5.63132">
        <ele>474</ele>
        <time>2021-10-28T09:37:43Z</time>
      </trkpt>
      <trkpt lat="46.76803" lon="5.63139">
        <ele>474</ele>
        <time>2021-10-28T09:37:48Z</time>
      </trkpt>
      <trkpt lat="46.76806" lon="5.63147">
        <ele>474</ele>
        <time>2021-10-28T09:37:52Z</time>
      </trkpt>
      <trkpt lat="46.76825" lon="5.63185">
        <ele>473</ele>
        <time>2021-10-28T09:38:24Z</time>
      </trkpt>
      <trkpt lat="46.76837" lon="5.632">
        <ele>472</ele>
        <time>2021-10-28T09:38:38Z</time>
      </trkpt>
      <trkpt lat="46.76847" lon="5.63219">
        <ele>470</ele>
        <time>2021-10-28T09:38:57Z</time>
      </trkpt>
      <trkpt lat="46.76856" lon="5.63229">
        <ele>469</ele>
        <time>2021-10-28T09:39:09Z</time>
      </trkpt>
      <trkpt lat="46.76861" lon="5.63236">
        <ele>469</ele>
        <time>2021-10-28T09:39:14Z</time>
      </trkpt>
      <trkpt lat="46.76865" lon="5.63243">
        <ele>469</ele>
        <time>2021-10-28T09:39:18Z</time>
      </trkpt>
      <trkpt lat="46.76868" lon="5.63258">
        <ele>468</ele>
        <time>2021-10-28T09:39:27Z</time>
      </trkpt>
      <trkpt lat="46.76876" lon="5.63274">
        <ele>467</ele>
        <time>2021-10-28T09:39:37Z</time>
      </trkpt>
      <trkpt lat="46.76877" lon="5.63283">
        <ele>467</ele>
        <time>2021-10-28T09:39:42Z</time>
      </trkpt>
      <trkpt lat="46.76878" lon="5.63302">
        <ele>467</ele>
        <time>2021-10-28T09:39:51Z</time>
      </trkpt>
      <trkpt lat="46.7688" lon="5.63328">
        <ele>465</ele>
        <time>2021-10-28T09:40:10Z</time>
      </trkpt>
      <trkpt lat="46.76886" lon="5.63352">
        <ele>466</ele>
        <time>2021-10-28T09:40:32Z</time>
      </trkpt>
      <trkpt lat="46.76891" lon="5.63361">
        <ele>467</ele>
        <time>2021-10-28T09:40:39Z</time>
      </trkpt>
      <trkpt lat="46.76892" lon="5.63381">
        <ele>467</ele>
        <time>2021-10-28T09:40:51Z</time>
      </trkpt>
      <trkpt lat="46.76891" lon="5.63389">
        <ele>466</ele>
        <time>2021-10-28T09:40:55Z</time>
      </trkpt>
      <trkpt lat="46.76892" lon="5.63408">
        <ele>465</ele>
        <time>2021-10-28T09:41:10Z</time>
      </trkpt>
      <trkpt lat="46.76903" lon="5.63438">
        <ele>468</ele>
        <time>2021-10-28T09:41:35Z</time>
      </trkpt>
      <trkpt lat="46.76906" lon="5.63446">
        <ele>468</ele>
        <time>2021-10-28T09:41:41Z</time>
      </trkpt>
      <trkpt lat="46.7691" lon="5.63462">
        <ele>469</ele>
        <time>2021-10-28T09:41:55Z</time>
      </trkpt>
      <trkpt lat="46.76909" lon="5.63471">
        <ele>470</ele>
        <time>2021-10-28T09:42:00Z</time>
      </trkpt>
      <trkpt lat="46.76908" lon="5.63483">
        <ele>469</ele>
        <time>2021-10-28T09:42:10Z</time>
      </trkpt>
      <trkpt lat="46.76913" lon="5.63495">
        <ele>471</ele>
        <time>2021-10-28T09:42:22Z</time>
      </trkpt>
      <trkpt lat="46.7691" lon="5.63507">
        <ele>472</ele>
        <time>2021-10-28T09:42:34Z</time>
      </trkpt>
      <trkpt lat="46.76908" lon="5.63521">
        <ele>472</ele>
        <time>2021-10-28T09:42:46Z</time>
      </trkpt>
      <trkpt lat="46.76905" lon="5.63528">
        <ele>473</ele>
        <time>2021-10-28T09:43:04Z</time>
      </trkpt>
      <trkpt lat="46.76902" lon="5.63539">
        <ele>473</ele>
        <time>2021-10-28T09:43:48Z</time>
      </trkpt>
      <trkpt lat="46.76898" lon="5.63545">
        <ele>472</ele>
        <time>2021-10-28T09:43:53Z</time>
      </trkpt>
      <trkpt lat="46.76892" lon="5.63555">
        <ele>472</ele>
        <time>2021-10-28T09:44:02Z</time>
      </trkpt>
      <trkpt lat="46.76888" lon="5.63561">
        <ele>472</ele>
        <time>2021-10-28T09:44:08Z</time>
      </trkpt>
      <trkpt lat="46.76883" lon="5.63565">
        <ele>471</ele>
        <time>2021-10-28T09:44:14Z</time>
      </trkpt>
      <trkpt lat="46.76875" lon="5.63578">
        <ele>471</ele>
        <time>2021-10-28T09:44:23Z</time>
      </trkpt>
      <trkpt lat="46.76871" lon="5.63583">
        <ele>471</ele>
        <time>2021-10-28T09:44:28Z</time>
      </trkpt>
      <trkpt lat="46.76867" lon="5.6359">
        <ele>471</ele>
        <time>2021-10-28T09:44:36Z</time>
      </trkpt>
      <trkpt lat="46.76859" lon="5.63614">
        <ele>473</ele>
        <time>2021-10-28T09:44:58Z</time>
      </trkpt>
      <trkpt lat="46.7686" lon="5.63621">
        <ele>471</ele>
        <time>2021-10-28T09:47:03Z</time>
      </trkpt>
      <trkpt lat="46.76864" lon="5.63629">
        <ele>470</ele>
        <time>2021-10-28T09:47:56Z</time>
      </trkpt>
      <trkpt lat="46.76877" lon="5.63645">
        <ele>469</ele>
        <time>2021-10-28T09:48:14Z</time>
      </trkpt>
      <trkpt lat="46.76883" lon="5.63649">
        <ele>469</ele>
        <time>2021-10-28T09:48:18Z</time>
      </trkpt>
      <trkpt lat="46.76888" lon="5.63653">
        <ele>469</ele>
        <time>2021-10-28T09:48:24Z</time>
      </trkpt>
      <trkpt lat="46.76891" lon="5.6366">
        <ele>469</ele>
        <time>2021-10-28T09:48:32Z</time>
      </trkpt>
      <trkpt lat="46.76895" lon="5.63669">
        <ele>468</ele>
        <time>2021-10-28T09:49:02Z</time>
      </trkpt>
      <trkpt lat="46.76896" lon="5.63685">
        <ele>467</ele>
        <time>2021-10-28T09:49:13Z</time>
      </trkpt>
      <trkpt lat="46.76901" lon="5.63688">
        <ele>467</ele>
        <time>2021-10-28T09:49:27Z</time>
      </trkpt>
      <trkpt lat="46.76907" lon="5.63704">
        <ele>467</ele>
        <time>2021-10-28T09:49:45Z</time>
      </trkpt>
      <trkpt lat="46.76914" lon="5.63714">
        <ele>468</ele>
        <time>2021-10-28T09:49:53Z</time>
      </trkpt>
      <trkpt lat="46.76918" lon="5.63719">
        <ele>467</ele>
        <time>2021-10-28T09:49:57Z</time>
      </trkpt>
      <trkpt lat="46.76923" lon="5.63727">
        <ele>468</ele>
        <time>2021-10-28T09:50:05Z</time>
      </trkpt>
      <trkpt lat="46.76929" lon="5.63738">
        <ele>467</ele>
        <time>2021-10-28T09:50:15Z</time>
      </trkpt>
      <trkpt lat="46.76933" lon="5.63742">
        <ele>468</ele>
        <time>2021-10-28T09:50:20Z</time>
      </trkpt>
      <trkpt lat="46.76938" lon="5.63751">
        <ele>468</ele>
        <time>2021-10-28T09:50:29Z</time>
      </trkpt>
      <trkpt lat="46.76942" lon="5.63757">
        <ele>468</ele>
        <time>2021-10-28T09:50:34Z</time>
      </trkpt>
      <trkpt lat="46.76946" lon="5.63763">
        <ele>468</ele>
        <time>2021-10-28T09:50:39Z</time>
      </trkpt>
      <trkpt lat="46.76955" lon="5.63769">
        <ele>468</ele>
        <time>2021-10-28T09:50:57Z</time>
      </trkpt>
      <trkpt lat="46.76974" lon="5.6378">
        <ele>471</ele>
        <time>2021-10-28T09:51:16Z</time>
      </trkpt>
      <trkpt lat="46.7698" lon="5.6379">
        <ele>471</ele>
        <time>2021-10-28T09:51:21Z</time>
      </trkpt>
      <trkpt lat="46.76979" lon="5.63811">
        <ele>471</ele>
        <time>2021-10-28T09:51:39Z</time>
      </trkpt>
      <trkpt lat="46.76992" lon="5.63814">
        <ele>473</ele>
        <time>2021-10-28T09:51:53Z</time>
      </trkpt>
      <trkpt lat="46.76997" lon="5.63821">
        <ele>474</ele>
        <time>2021-10-28T09:52:00Z</time>
      </trkpt>
      <trkpt lat="46.76997" lon="5.63831">
        <ele>474</ele>
        <time>2021-10-28T09:52:10Z</time>
      </trkpt>
      <trkpt lat="46.76989" lon="5.63851">
        <ele>474</ele>
        <time>2021-10-28T09:52:26Z</time>
      </trkpt>
      <trkpt lat="46.76985" lon="5.63862">
        <ele>475</ele>
        <time>2021-10-28T09:52:38Z</time>
      </trkpt>
      <trkpt lat="46.76962" lon="5.63905">
        <ele>479</ele>
        <time>2021-10-28T09:53:14Z</time>
      </trkpt>
      <trkpt lat="46.7695" lon="5.63922">
        <ele>482</ele>
        <time>2021-10-28T09:53:31Z</time>
      </trkpt>
      <trkpt lat="46.76945" lon="5.63934">
        <ele>482</ele>
        <time>2021-10-28T09:53:40Z</time>
      </trkpt>
      <trkpt lat="46.76941" lon="5.6395">
        <ele>484</ele>
        <time>2021-10-28T09:53:51Z</time>
      </trkpt>
      <trkpt lat="46.76939" lon="5.63963">
        <ele>484</ele>
        <time>2021-10-28T09:53:59Z</time>
      </trkpt>
      <trkpt lat="46.76938" lon="5.6397">
        <ele>485</ele>
        <time>2021-10-28T09:54:05Z</time>
      </trkpt>
      <trkpt lat="46.76932" lon="5.63989">
        <ele>486</ele>
        <time>2021-10-28T09:54:16Z</time>
      </trkpt>
      <trkpt lat="46.76929" lon="5.63996">
        <ele>487</ele>
        <time>2021-10-28T09:54:22Z</time>
      </trkpt>
      <trkpt lat="46.7691" lon="5.64041">
        <ele>486</ele>
        <time>2021-10-28T09:54:55Z</time>
      </trkpt>
      <trkpt lat="46.76907" lon="5.64047">
        <ele>486</ele>
        <time>2021-10-28T09:54:58Z</time>
      </trkpt>
      <trkpt lat="46.76904" lon="5.64051">
        <ele>485</ele>
        <time>2021-10-28T09:55:02Z</time>
      </trkpt>
      <trkpt lat="46.76901" lon="5.64059">
        <ele>485</ele>
        <time>2021-10-28T09:55:08Z</time>
      </trkpt>
      <trkpt lat="46.76902" lon="5.64068">
        <ele>486</ele>
        <time>2021-10-28T09:55:12Z</time>
      </trkpt>
      <trkpt lat="46.769" lon="5.64087">
        <ele>485</ele>
        <time>2021-10-28T09:55:27Z</time>
      </trkpt>
      <trkpt lat="46.76897" lon="5.64095">
        <ele>484</ele>
        <time>2021-10-28T09:55:33Z</time>
      </trkpt>
      <trkpt lat="46.76892" lon="5.64096">
        <ele>484</ele>
        <time>2021-10-28T09:55:38Z</time>
      </trkpt>
      <trkpt lat="46.76886" lon="5.64095">
        <ele>484</ele>
        <time>2021-10-28T09:55:44Z</time>
      </trkpt>
      <trkpt lat="46.76879" lon="5.64097">
        <ele>483</ele>
        <time>2021-10-28T09:55:51Z</time>
      </trkpt>
      <trkpt lat="46.76874" lon="5.64096">
        <ele>483</ele>
        <time>2021-10-28T09:55:55Z</time>
      </trkpt>
      <trkpt lat="46.76868" lon="5.64093">
        <ele>483</ele>
        <time>2021-10-28T09:56:03Z</time>
      </trkpt>
      <trkpt lat="46.76863" lon="5.64097">
        <ele>483</ele>
        <time>2021-10-28T09:56:09Z</time>
      </trkpt>
      <trkpt lat="46.76857" lon="5.641">
        <ele>483</ele>
        <time>2021-10-28T09:56:14Z</time>
      </trkpt>
      <trkpt lat="46.76819" lon="5.64104">
        <ele>483</ele>
        <time>2021-10-28T09:56:45Z</time>
      </trkpt>
      <trkpt lat="46.76813" lon="5.64103">
        <ele>483</ele>
        <time>2021-10-28T09:56:49Z</time>
      </trkpt>
      <trkpt lat="46.76806" lon="5.64103">
        <ele>484</ele>
        <time>2021-10-28T09:56:54Z</time>
      </trkpt>
      <trkpt lat="46.76801" lon="5.64103">
        <ele>484</ele>
        <time>2021-10-28T09:56:59Z</time>
      </trkpt>
      <trkpt lat="46.76795" lon="5.64104">
        <ele>484</ele>
        <time>2021-10-28T09:57:04Z</time>
      </trkpt>
      <trkpt lat="46.76788" lon="5.64102">
        <ele>484</ele>
        <time>2021-10-28T09:57:11Z</time>
      </trkpt>
      <trkpt lat="46.76782" lon="5.641">
        <ele>484</ele>
        <time>2021-10-28T09:57:15Z</time>
      </trkpt>
      <trkpt lat="46.76776" lon="5.64101">
        <ele>485</ele>
        <time>2021-10-28T09:57:20Z</time>
      </trkpt>
      <trkpt lat="46.76769" lon="5.64099">
        <ele>485</ele>
        <time>2021-10-28T09:57:25Z</time>
      </trkpt>
      <trkpt lat="46.7676" lon="5.64096">
        <ele>485</ele>
        <time>2021-10-28T09:57:35Z</time>
      </trkpt>
      <trkpt lat="46.76732" lon="5.6409">
        <ele>487</ele>
        <time>2021-10-28T09:58:02Z</time>
      </trkpt>
      <trkpt lat="46.76708" lon="5.64082">
        <ele>488</ele>
        <time>2021-10-28T09:58:23Z</time>
      </trkpt>
      <trkpt lat="46.76703" lon="5.64079">
        <ele>488</ele>
        <time>2021-10-28T09:58:28Z</time>
      </trkpt>
      <trkpt lat="46.76698" lon="5.64076">
        <ele>488</ele>
        <time>2021-10-28T09:58:33Z</time>
      </trkpt>
      <trkpt lat="46.76686" lon="5.6407">
        <ele>489</ele>
        <time>2021-10-28T09:58:44Z</time>
      </trkpt>
      <trkpt lat="46.76681" lon="5.64065">
        <ele>490</ele>
        <time>2021-10-28T09:58:49Z</time>
      </trkpt>
      <trkpt lat="46.76676" lon="5.64061">
        <ele>490</ele>
        <time>2021-10-28T09:58:54Z</time>
      </trkpt>
      <trkpt lat="46.76658" lon="5.6405">
        <ele>491</ele>
        <time>2021-10-28T09:59:10Z</time>
      </trkpt>
      <trkpt lat="46.76649" lon="5.6405">
        <ele>492</ele>
        <time>2021-10-28T09:59:18Z</time>
      </trkpt>
      <trkpt lat="46.76644" lon="5.64051">
        <ele>492</ele>
        <time>2021-10-28T09:59:22Z</time>
      </trkpt>
      <trkpt lat="46.76633" lon="5.64048">
        <ele>492</ele>
        <time>2021-10-28T09:59:33Z</time>
      </trkpt>
      <trkpt lat="46.76626" lon="5.64048">
        <ele>492</ele>
        <time>2021-10-28T09:59:39Z</time>
      </trkpt>
      <trkpt lat="46.76585" lon="5.64031">
        <ele>491</ele>
        <time>2021-10-28T10:00:13Z</time>
      </trkpt>
      <trkpt lat="46.76551" lon="5.6402">
        <ele>489</ele>
        <time>2021-10-28T10:00:44Z</time>
      </trkpt>
      <trkpt lat="46.76531" lon="5.64014">
        <ele>487</ele>
        <time>2021-10-28T10:01:00Z</time>
      </trkpt>
      <trkpt lat="46.76512" lon="5.64011">
        <ele>486</ele>
        <time>2021-10-28T10:01:17Z</time>
      </trkpt>
      <trkpt lat="46.76489" lon="5.64003">
        <ele>484</ele>
        <time>2021-10-28T10:01:34Z</time>
      </trkpt>
      <trkpt lat="46.76482" lon="5.64002">
        <ele>483</ele>
        <time>2021-10-28T10:01:42Z</time>
      </trkpt>
      <trkpt lat="46.76462" lon="5.63999">
        <ele>482</ele>
        <time>2021-10-28T10:01:57Z</time>
      </trkpt>
      <trkpt lat="46.76451" lon="5.64002">
        <ele>482</ele>
        <time>2021-10-28T10:02:06Z</time>
      </trkpt>
      <trkpt lat="46.76445" lon="5.64">
        <ele>482</ele>
        <time>2021-10-28T10:02:11Z</time>
      </trkpt>
      <trkpt lat="46.76421" lon="5.64002">
        <ele>482</ele>
        <time>2021-10-28T10:02:31Z</time>
      </trkpt>
      <trkpt lat="46.76415" lon="5.64005">
        <ele>482</ele>
        <time>2021-10-28T10:02:37Z</time>
      </trkpt>
      <trkpt lat="46.76409" lon="5.64009">
        <ele>482</ele>
        <time>2021-10-28T10:02:43Z</time>
      </trkpt>
      <trkpt lat="46.76382" lon="5.64016">
        <ele>481</ele>
        <time>2021-10-28T10:03:06Z</time>
      </trkpt>
      <trkpt lat="46.76359" lon="5.64028">
        <ele>480</ele>
        <time>2021-10-28T10:03:27Z</time>
      </trkpt>
      <trkpt lat="46.76354" lon="5.64034">
        <ele>480</ele>
        <time>2021-10-28T10:03:32Z</time>
      </trkpt>
      <trkpt lat="46.76342" lon="5.6404">
        <ele>479</ele>
        <time>2021-10-28T10:03:43Z</time>
      </trkpt>
      <trkpt lat="46.76331" lon="5.64045">
        <ele>478</ele>
        <time>2021-10-28T10:03:54Z</time>
      </trkpt>
      <trkpt lat="46.76298" lon="5.64069">
        <ele>478</ele>
        <time>2021-10-28T10:04:32Z</time>
      </trkpt>
      <trkpt lat="46.76292" lon="5.64065">
        <ele>478</ele>
        <time>2021-10-28T10:05:02Z</time>
      </trkpt>
      <trkpt lat="46.76287" lon="5.64059">
        <ele>477</ele>
        <time>2021-10-28T10:05:22Z</time>
      </trkpt>
      <trkpt lat="46.76282" lon="5.64052">
        <ele>477</ele>
        <time>2021-10-28T10:05:29Z</time>
      </trkpt>
      <trkpt lat="46.76276" lon="5.64048">
        <ele>476</ele>
        <time>2021-10-28T10:05:35Z</time>
      </trkpt>
      <trkpt lat="46.76273" lon="5.64038">
        <ele>476</ele>
        <time>2021-10-28T10:05:44Z</time>
      </trkpt>
      <trkpt lat="46.76267" lon="5.64035">
        <ele>476</ele>
        <time>2021-10-28T10:05:49Z</time>
      </trkpt>
      <trkpt lat="46.76256" lon="5.64013">
        <ele>474</ele>
        <time>2021-10-28T10:06:11Z</time>
      </trkpt>
      <trkpt lat="46.76234" lon="5.63983">
        <ele>471</ele>
        <time>2021-10-28T10:06:46Z</time>
      </trkpt>
      <trkpt lat="46.76228" lon="5.63967">
        <ele>470</ele>
        <time>2021-10-28T10:07:00Z</time>
      </trkpt>
      <trkpt lat="46.76226" lon="5.63943">
        <ele>469</ele>
        <time>2021-10-28T10:07:17Z</time>
      </trkpt>
      <trkpt lat="46.76227" lon="5.63933">
        <ele>469</ele>
        <time>2021-10-28T10:07:25Z</time>
      </trkpt>
      <trkpt lat="46.76225" lon="5.63903">
        <ele>468</ele>
        <time>2021-10-28T10:07:43Z</time>
      </trkpt>
      <trkpt lat="46.76223" lon="5.63893">
        <ele>468</ele>
        <time>2021-10-28T10:07:50Z</time>
      </trkpt>
      <trkpt lat="46.76223" lon="5.63882">
        <ele>467</ele>
        <time>2021-10-28T10:07:56Z</time>
      </trkpt>
      <trkpt lat="46.7622" lon="5.63871">
        <ele>467</ele>
        <time>2021-10-28T10:08:02Z</time>
      </trkpt>
      <trkpt lat="46.76217" lon="5.63862">
        <ele>466</ele>
        <time>2021-10-28T10:08:07Z</time>
      </trkpt>
      <trkpt lat="46.76214" lon="5.63849">
        <ele>466</ele>
        <time>2021-10-28T10:08:15Z</time>
      </trkpt>
      <trkpt lat="46.76183" lon="5.63814">
        <ele>463</ele>
        <time>2021-10-28T10:08:46Z</time>
      </trkpt>
      <trkpt lat="46.76178" lon="5.63804">
        <ele>462</ele>
        <time>2021-10-28T10:09:00Z</time>
      </trkpt>
      <trkpt lat="46.76171" lon="5.63798">
        <ele>462</ele>
        <time>2021-10-28T10:09:08Z</time>
      </trkpt>
      <trkpt lat="46.76153" lon="5.63768">
        <ele>460</ele>
        <time>2021-10-28T10:09:43Z</time>
      </trkpt>
      <trkpt lat="46.76151" lon="5.63757">
        <ele>459</ele>
        <time>2021-10-28T10:09:49Z</time>
      </trkpt>
      <trkpt lat="46.76138" lon="5.63726">
        <ele>458</ele>
        <time>2021-10-28T10:10:10Z</time>
      </trkpt>
      <trkpt lat="46.761" lon="5.63689">
        <ele>455</ele>
        <time>2021-10-28T10:10:52Z</time>
      </trkpt>
      <trkpt lat="46.76086" lon="5.63666">
        <ele>453</ele>
        <time>2021-10-28T10:11:11Z</time>
      </trkpt>
      <trkpt lat="46.76061" lon="5.63659">
        <ele>451</ele>
        <time>2021-10-28T10:11:41Z</time>
      </trkpt>
      <trkpt lat="46.76035" lon="5.63616">
        <ele>448</ele>
        <time>2021-10-28T10:12:17Z</time>
      </trkpt>
      <trkpt lat="46.76028" lon="5.63607">
        <ele>447</ele>
        <time>2021-10-28T10:12:25Z</time>
      </trkpt>
      <trkpt lat="46.76001" lon="5.63578">
        <ele>445</ele>
        <time>2021-10-28T10:12:56Z</time>
      </trkpt>
      <trkpt lat="46.75988" lon="5.63568">
        <ele>443</ele>
        <time>2021-10-28T10:13:11Z</time>
      </trkpt>
      <trkpt lat="46.75975" lon="5.63555">
        <ele>443</ele>
        <time>2021-10-28T10:13:23Z</time>
      </trkpt>
      <trkpt lat="46.75963" lon="5.63546">
        <ele>442</ele>
        <time>2021-10-28T10:13:41Z</time>
      </trkpt>
      <trkpt lat="46.7595" lon="5.63531">
        <ele>440</ele>
        <time>2021-10-28T10:13:57Z</time>
      </trkpt>
      <trkpt lat="46.75943" lon="5.6353">
        <ele>440</ele>
        <time>2021-10-28T10:14:04Z</time>
      </trkpt>
      <trkpt lat="46.75936" lon="5.63526">
        <ele>439</ele>
        <time>2021-10-28T10:14:12Z</time>
      </trkpt>
      <trkpt lat="46.75911" lon="5.63492">
        <ele>436</ele>
        <time>2021-10-28T10:14:43Z</time>
      </trkpt>
      <trkpt lat="46.75885" lon="5.63456">
        <ele>433</ele>
        <time>2021-10-28T10:15:22Z</time>
      </trkpt>
      <trkpt lat="46.75864" lon="5.63407">
        <ele>430</ele>
        <time>2021-10-28T10:15:53Z</time>
      </trkpt>
      <trkpt lat="46.75854" lon="5.63385">
        <ele>429</ele>
        <time>2021-10-28T10:16:09Z</time>
      </trkpt>
      <trkpt lat="46.7583" lon="5.63356">
        <ele>427</ele>
        <time>2021-10-28T10:16:39Z</time>
      </trkpt>
      <trkpt lat="46.7582" lon="5.63339">
        <ele>426</ele>
        <time>2021-10-28T10:16:50Z</time>
      </trkpt>
      <trkpt lat="46.75797" lon="5.63312">
        <ele>424</ele>
        <time>2021-10-28T10:17:15Z</time>
      </trkpt>
      <trkpt lat="46.75764" lon="5.63291">
        <ele>422</ele>
        <time>2021-10-28T10:17:56Z</time>
      </trkpt>
      <trkpt lat="46.7575" lon="5.63279">
        <ele>421</ele>
        <time>2021-10-28T10:18:13Z</time>
      </trkpt>
      <trkpt lat="46.75744" lon="5.63272">
        <ele>421</ele>
        <time>2021-10-28T10:18:19Z</time>
      </trkpt>
      <trkpt lat="46.75739" lon="5.63265">
        <ele>420</ele>
        <time>2021-10-28T10:18:27Z</time>
      </trkpt>
      <trkpt lat="46.75731" lon="5.63262">
        <ele>420</ele>
        <time>2021-10-28T10:18:35Z</time>
      </trkpt>
      <trkpt lat="46.75725" lon="5.63253">
        <ele>420</ele>
        <time>2021-10-28T10:18:49Z</time>
      </trkpt>
      <trkpt lat="46.75716" lon="5.63222">
        <ele>419</ele>
        <time>2021-10-28T10:19:14Z</time>
      </trkpt>
      <trkpt lat="46.75697" lon="5.6318">
        <ele>417</ele>
        <time>2021-10-28T10:19:52Z</time>
      </trkpt>
      <trkpt lat="46.75698" lon="5.63122">
        <ele>416</ele>
        <time>2021-10-28T10:20:42Z</time>
      </trkpt>
      <trkpt lat="46.75677" lon="5.63087">
        <ele>417</ele>
        <time>2021-10-28T10:21:12Z</time>
      </trkpt>
      <trkpt lat="46.75663" lon="5.63082">
        <ele>417</ele>
        <time>2021-10-28T10:21:36Z</time>
      </trkpt>
      <trkpt lat="46.75672" lon="5.63063">
        <ele>418</ele>
        <time>2021-10-28T10:22:10Z</time>
      </trkpt>
      <trkpt lat="46.75673" lon="5.6304">
        <ele>417</ele>
        <time>2021-10-28T10:22:23Z</time>
      </trkpt>
      <trkpt lat="46.7567" lon="5.63008">
        <ele>416</ele>
        <time>2021-10-28T10:22:38Z</time>
      </trkpt>
      <trkpt lat="46.75666" lon="5.62995">
        <ele>415</ele>
        <time>2021-10-28T10:22:55Z</time>
      </trkpt>
      <trkpt lat="46.7566" lon="5.62987">
        <ele>414</ele>
        <time>2021-10-28T10:23:07Z</time>
      </trkpt>
      <trkpt lat="46.75653" lon="5.62979">
        <ele>413</ele>
        <time>2021-10-28T10:23:15Z</time>
      </trkpt>
      <trkpt lat="46.7565" lon="5.6297">
        <ele>413</ele>
        <time>2021-10-28T10:23:20Z</time>
      </trkpt>
      <trkpt lat="46.75643" lon="5.62962">
        <ele>413</ele>
        <time>2021-10-28T10:23:26Z</time>
      </trkpt>
      <trkpt lat="46.75629" lon="5.6293">
        <ele>413</ele>
        <time>2021-10-28T10:23:50Z</time>
      </trkpt>
      <trkpt lat="46.75625" lon="5.62921">
        <ele>415</ele>
        <time>2021-10-28T10:23:57Z</time>
      </trkpt>
      <trkpt lat="46.75613" lon="5.62891">
        <ele>417</ele>
        <time>2021-10-28T10:24:20Z</time>
      </trkpt>
      <trkpt lat="46.7561" lon="5.62881">
        <ele>418</ele>
        <time>2021-10-28T10:24:28Z</time>
      </trkpt>
      <trkpt lat="46.7561" lon="5.62872">
        <ele>418</ele>
        <time>2021-10-28T10:24:36Z</time>
      </trkpt>
      <trkpt lat="46.75602" lon="5.6285">
        <ele>421</ele>
        <time>2021-10-28T10:24:56Z</time>
      </trkpt>
      <trkpt lat="46.75598" lon="5.62817">
        <ele>425</ele>
        <time>2021-10-28T10:25:29Z</time>
      </trkpt>
      <trkpt lat="46.75596" lon="5.62784">
        <ele>428</ele>
        <time>2021-10-28T10:25:59Z</time>
      </trkpt>
      <trkpt lat="46.75594" lon="5.6277">
        <ele>430</ele>
        <time>2021-10-28T10:26:12Z</time>
      </trkpt>
      <trkpt lat="46.75584" lon="5.62745">
        <ele>432</ele>
        <time>2021-10-28T10:26:37Z</time>
      </trkpt>
      <trkpt lat="46.75584" lon="5.62733">
        <ele>433</ele>
        <time>2021-10-28T10:26:45Z</time>
      </trkpt>
      <trkpt lat="46.7558" lon="5.62723">
        <ele>434</ele>
        <time>2021-10-28T10:26:54Z</time>
      </trkpt>
      <trkpt lat="46.75584" lon="5.62712">
        <ele>435</ele>
        <time>2021-10-28T10:27:06Z</time>
      </trkpt>
      <trkpt lat="46.75591" lon="5.62705">
        <ele>436</ele>
        <time>2021-10-28T10:27:18Z</time>
      </trkpt>
      <trkpt lat="46.75602" lon="5.62702">
        <ele>438</ele>
        <time>2021-10-28T10:27:36Z</time>
      </trkpt>
      <trkpt lat="46.75608" lon="5.62694">
        <ele>438</ele>
        <time>2021-10-28T10:27:44Z</time>
      </trkpt>
      <trkpt lat="46.75623" lon="5.62683">
        <ele>440</ele>
        <time>2021-10-28T10:28:03Z</time>
      </trkpt>
      <trkpt lat="46.75633" lon="5.62668">
        <ele>442</ele>
        <time>2021-10-28T10:28:19Z</time>
      </trkpt>
      <trkpt lat="46.75641" lon="5.62634">
        <ele>444</ele>
        <time>2021-10-28T10:28:44Z</time>
      </trkpt>
      <trkpt lat="46.75644" lon="5.62623">
        <ele>445</ele>
        <time>2021-10-28T10:28:59Z</time>
      </trkpt>
      <trkpt lat="46.75647" lon="5.62611">
        <ele>445</ele>
        <time>2021-10-28T10:29:11Z</time>
      </trkpt>
      <trkpt lat="46.75659" lon="5.62597">
        <ele>445</ele>
        <time>2021-10-28T10:29:25Z</time>
      </trkpt>
      <trkpt lat="46.7566" lon="5.62585">
        <ele>446</ele>
        <time>2021-10-28T10:29:36Z</time>
      </trkpt>
      <trkpt lat="46.75657" lon="5.62572">
        <ele>446</ele>
        <time>2021-10-28T10:29:47Z</time>
      </trkpt>
      <trkpt lat="46.75662" lon="5.6255">
        <ele>446</ele>
        <time>2021-10-28T10:30:05Z</time>
      </trkpt>
      <trkpt lat="46.75662" lon="5.62537">
        <ele>445</ele>
        <time>2021-10-28T10:30:20Z</time>
      </trkpt>
      <trkpt lat="46.75667" lon="5.62532">
        <ele>445</ele>
        <time>2021-10-28T10:30:32Z</time>
      </trkpt>
      <trkpt lat="46.75663" lon="5.62533">
        <ele>444</ele>
        <time>2021-10-28T10:33:26Z</time>
      </trkpt>
      <trkpt lat="46.75666" lon="5.62544">
        <ele>443</ele>
        <time>2021-10-28T10:34:08Z</time>
      </trkpt>
      <trkpt lat="46.75674" lon="5.6253">
        <ele>443</ele>
        <time>2021-10-28T10:35:08Z</time>
      </trkpt>
      <trkpt lat="46.75666" lon="5.62532">
        <ele>440</ele>
        <time>2021-10-28T10:35:49Z</time>
      </trkpt>
      <trkpt lat="46.75664" lon="5.62537">
        <ele>442</ele>
        <time>2021-10-28T10:41:35Z</time>
      </trkpt>
      <trkpt lat="46.75666" lon="5.6254">
        <ele>442</ele>
        <time>2021-10-28T11:07:19Z</time>
      </trkpt>
      <trkpt lat="46.75649" lon="5.62492">
        <ele>437</ele>
        <time>2021-10-28T11:21:33Z</time>
      </trkpt>
      <trkpt lat="46.75648" lon="5.62493">
        <ele>437</ele>
        <time>2021-10-28T11:21:34Z</time>
      </trkpt>
      <trkpt lat="46.75642" lon="5.62492">
        <ele>438</ele>
        <time>2021-10-28T11:21:42Z</time>
      </trkpt>
      <trkpt lat="46.75637" lon="5.62489">
        <ele>438</ele>
        <time>2021-10-28T11:21:50Z</time>
      </trkpt>
      <trkpt lat="46.75631" lon="5.62485">
        <ele>438</ele>
        <time>2021-10-28T11:21:56Z</time>
      </trkpt>
      <trkpt lat="46.75622" lon="5.62484">
        <ele>438</ele>
        <time>2021-10-28T11:22:05Z</time>
      </trkpt>
      <trkpt lat="46.7561" lon="5.62471">
        <ele>437</ele>
        <time>2021-10-28T11:22:23Z</time>
      </trkpt>
      <trkpt lat="46.75601" lon="5.62465">
        <ele>436</ele>
        <time>2021-10-28T11:22:38Z</time>
      </trkpt>
      <trkpt lat="46.75587" lon="5.62443">
        <ele>436</ele>
        <time>2021-10-28T11:22:55Z</time>
      </trkpt>
      <trkpt lat="46.75582" lon="5.62438">
        <ele>436</ele>
        <time>2021-10-28T11:23:01Z</time>
      </trkpt>
      <trkpt lat="46.75575" lon="5.6243">
        <ele>436</ele>
        <time>2021-10-28T11:23:12Z</time>
      </trkpt>
      <trkpt lat="46.75567" lon="5.62424">
        <ele>435</ele>
        <time>2021-10-28T11:23:26Z</time>
      </trkpt>
      <trkpt lat="46.75541" lon="5.62403">
        <ele>435</ele>
        <time>2021-10-28T11:23:53Z</time>
      </trkpt>
      <trkpt lat="46.75532" lon="5.62401">
        <ele>434</ele>
        <time>2021-10-28T11:24:00Z</time>
      </trkpt>
      <trkpt lat="46.75527" lon="5.62397">
        <ele>433</ele>
        <time>2021-10-28T11:24:04Z</time>
      </trkpt>
      <trkpt lat="46.75519" lon="5.624">
        <ele>433</ele>
        <time>2021-10-28T11:24:16Z</time>
      </trkpt>
      <trkpt lat="46.75513" lon="5.62397">
        <ele>432</ele>
        <time>2021-10-28T11:24:22Z</time>
      </trkpt>
      <trkpt lat="46.75507" lon="5.6239">
        <ele>432</ele>
        <time>2021-10-28T11:24:30Z</time>
      </trkpt>
      <trkpt lat="46.75499" lon="5.62386">
        <ele>432</ele>
        <time>2021-10-28T11:24:39Z</time>
      </trkpt>
      <trkpt lat="46.75484" lon="5.62377">
        <ele>431</ele>
        <time>2021-10-28T11:25:06Z</time>
      </trkpt>
      <trkpt lat="46.75465" lon="5.62374">
        <ele>431</ele>
        <time>2021-10-28T11:25:25Z</time>
      </trkpt>
      <trkpt lat="46.75454" lon="5.6239">
        <ele>431</ele>
        <time>2021-10-28T11:25:37Z</time>
      </trkpt>
      <trkpt lat="46.75451" lon="5.624">
        <ele>431</ele>
        <time>2021-10-28T11:25:50Z</time>
      </trkpt>
      <trkpt lat="46.7545" lon="5.62408">
        <ele>432</ele>
        <time>2021-10-28T11:25:55Z</time>
      </trkpt>
      <trkpt lat="46.7544" lon="5.62429">
        <ele>433</ele>
        <time>2021-10-28T11:26:10Z</time>
      </trkpt>
      <trkpt lat="46.75436" lon="5.62439">
        <ele>434</ele>
        <time>2021-10-28T11:26:18Z</time>
      </trkpt>
      <trkpt lat="46.75426" lon="5.62445">
        <ele>435</ele>
        <time>2021-10-28T11:26:30Z</time>
      </trkpt>
      <trkpt lat="46.75419" lon="5.62445">
        <ele>436</ele>
        <time>2021-10-28T11:26:42Z</time>
      </trkpt>
      <trkpt lat="46.75411" lon="5.62439">
        <ele>436</ele>
        <time>2021-10-28T11:26:50Z</time>
      </trkpt>
      <trkpt lat="46.75403" lon="5.6244">
        <ele>436</ele>
        <time>2021-10-28T11:26:56Z</time>
      </trkpt>
      <trkpt lat="46.75398" lon="5.62441">
        <ele>435</ele>
        <time>2021-10-28T11:27:02Z</time>
      </trkpt>
      <trkpt lat="46.75375" lon="5.6245">
        <ele>435</ele>
        <time>2021-10-28T11:27:35Z</time>
      </trkpt>
      <trkpt lat="46.75368" lon="5.6245">
        <ele>435</ele>
        <time>2021-10-28T11:27:41Z</time>
      </trkpt>
      <trkpt lat="46.75363" lon="5.62448">
        <ele>435</ele>
        <time>2021-10-28T11:27:46Z</time>
      </trkpt>
      <trkpt lat="46.75349" lon="5.62439">
        <ele>434</ele>
        <time>2021-10-28T11:27:59Z</time>
      </trkpt>
      <trkpt lat="46.75347" lon="5.62426">
        <ele>433</ele>
        <time>2021-10-28T11:28:09Z</time>
      </trkpt>
      <trkpt lat="46.75343" lon="5.62419">
        <ele>433</ele>
        <time>2021-10-28T11:28:14Z</time>
      </trkpt>
      <trkpt lat="46.75336" lon="5.62415">
        <ele>432</ele>
        <time>2021-10-28T11:28:23Z</time>
      </trkpt>
      <trkpt lat="46.7533" lon="5.62415">
        <ele>431</ele>
        <time>2021-10-28T11:28:43Z</time>
      </trkpt>
      <trkpt lat="46.75324" lon="5.62406">
        <ele>430</ele>
        <time>2021-10-28T11:28:54Z</time>
      </trkpt>
      <trkpt lat="46.75318" lon="5.62397">
        <ele>430</ele>
        <time>2021-10-28T11:29:05Z</time>
      </trkpt>
      <trkpt lat="46.75312" lon="5.6239">
        <ele>430</ele>
        <time>2021-10-28T11:29:44Z</time>
      </trkpt>
      <trkpt lat="46.75312" lon="5.62405">
        <ele>430</ele>
        <time>2021-10-28T11:30:14Z</time>
      </trkpt>
      <trkpt lat="46.75311" lon="5.6241">
        <ele>429</ele>
        <time>2021-10-28T11:30:28Z</time>
      </trkpt>
      <trkpt lat="46.75308" lon="5.62403">
        <ele>427</ele>
        <time>2021-10-28T11:34:54Z</time>
      </trkpt>
      <trkpt lat="46.75318" lon="5.6241">
        <ele>427</ele>
        <time>2021-10-28T11:35:30Z</time>
      </trkpt>
      <trkpt lat="46.7533" lon="5.62418">
        <ele>427</ele>
        <time>2021-10-28T11:35:42Z</time>
      </trkpt>
      <trkpt lat="46.7534" lon="5.62421">
        <ele>430</ele>
        <time>2021-10-28T11:35:56Z</time>
      </trkpt>
      <trkpt lat="46.75344" lon="5.62426">
        <ele>431</ele>
        <time>2021-10-28T11:36:03Z</time>
      </trkpt>
      <trkpt lat="46.75353" lon="5.62446">
        <ele>433</ele>
        <time>2021-10-28T11:36:21Z</time>
      </trkpt>
      <trkpt lat="46.75356" lon="5.62457">
        <ele>434</ele>
        <time>2021-10-28T11:36:33Z</time>
      </trkpt>
      <trkpt lat="46.75357" lon="5.62476">
        <ele>434</ele>
        <time>2021-10-28T11:36:48Z</time>
      </trkpt>
      <trkpt lat="46.75357" lon="5.62484">
        <ele>434</ele>
        <time>2021-10-28T11:36:53Z</time>
      </trkpt>
      <trkpt lat="46.75366" lon="5.62488">
        <ele>436</ele>
        <time>2021-10-28T11:37:08Z</time>
      </trkpt>
      <trkpt lat="46.75371" lon="5.6249">
        <ele>435</ele>
        <time>2021-10-28T11:37:14Z</time>
      </trkpt>
      <trkpt lat="46.75377" lon="5.62494">
        <ele>435</ele>
        <time>2021-10-28T11:37:19Z</time>
      </trkpt>
      <trkpt lat="46.75375" lon="5.62509">
        <ele>435</ele>
        <time>2021-10-28T11:37:47Z</time>
      </trkpt>
      <trkpt lat="46.75371" lon="5.62513">
        <ele>434</ele>
        <time>2021-10-28T11:37:55Z</time>
      </trkpt>
      <trkpt lat="46.75369" lon="5.62522">
        <ele>433</ele>
        <time>2021-10-28T11:38:08Z</time>
      </trkpt>
      <trkpt lat="46.75372" lon="5.6253">
        <ele>431</ele>
        <time>2021-10-28T11:38:13Z</time>
      </trkpt>
      <trkpt lat="46.75377" lon="5.62549">
        <ele>428</ele>
        <time>2021-10-28T11:38:35Z</time>
      </trkpt>
      <trkpt lat="46.75396" lon="5.62581">
        <ele>423</ele>
        <time>2021-10-28T11:39:10Z</time>
      </trkpt>
      <trkpt lat="46.75396" lon="5.62592">
        <ele>421</ele>
        <time>2021-10-28T11:39:30Z</time>
      </trkpt>
      <trkpt lat="46.7539" lon="5.62603">
        <ele>418</ele>
        <time>2021-10-28T11:39:54Z</time>
      </trkpt>
      <trkpt lat="46.75382" lon="5.62607">
        <ele>416</ele>
        <time>2021-10-28T11:40:06Z</time>
      </trkpt>
      <trkpt lat="46.75365" lon="5.62612">
        <ele>411</ele>
        <time>2021-10-28T11:40:44Z</time>
      </trkpt>
      <trkpt lat="46.7535" lon="5.62608">
        <ele>406</ele>
        <time>2021-10-28T11:41:15Z</time>
      </trkpt>
      <trkpt lat="46.75336" lon="5.62609">
        <ele>401</ele>
        <time>2021-10-28T11:41:52Z</time>
      </trkpt>
      <trkpt lat="46.75331" lon="5.62614">
        <ele>399</ele>
        <time>2021-10-28T11:42:04Z</time>
      </trkpt>
      <trkpt lat="46.75325" lon="5.62614">
        <ele>397</ele>
        <time>2021-10-28T11:42:16Z</time>
      </trkpt>
      <trkpt lat="46.7531" lon="5.62607">
        <ele>392</ele>
        <time>2021-10-28T11:42:50Z</time>
      </trkpt>
      <trkpt lat="46.75307" lon="5.62603">
        <ele>392</ele>
        <time>2021-10-28T11:42:56Z</time>
      </trkpt>
      <trkpt lat="46.75299" lon="5.62605">
        <ele>391</ele>
        <time>2021-10-28T11:43:03Z</time>
      </trkpt>
      <trkpt lat="46.75294" lon="5.62609">
        <ele>390</ele>
        <time>2021-10-28T11:43:08Z</time>
      </trkpt>
      <trkpt lat="46.75291" lon="5.62614">
        <ele>389</ele>
        <time>2021-10-28T11:43:22Z</time>
      </trkpt>
      <trkpt lat="46.75286" lon="5.62608">
        <ele>385</ele>
        <time>2021-10-28T11:43:46Z</time>
      </trkpt>
      <trkpt lat="46.75288" lon="5.62603">
        <ele>388</ele>
        <time>2021-10-28T11:44:30Z</time>
      </trkpt>
      <trkpt lat="46.75288" lon="5.62603">
        <ele>388</ele>
        <time>2021-10-28T11:44:31Z</time>
      </trkpt>
      <trkpt lat="46.75285" lon="5.6261">
        <ele>389</ele>
        <time>2021-10-28T11:44:54Z</time>
      </trkpt>
      <trkpt lat="46.75279" lon="5.62608">
        <ele>386</ele>
        <time>2021-10-28T11:45:24Z</time>
      </trkpt>
      <trkpt lat="46.75276" lon="5.6261">
        <ele>385</ele>
        <time>2021-10-28T11:45:40Z</time>
      </trkpt>
      <trkpt lat="46.75269" lon="5.62609">
        <ele>383</ele>
        <time>2021-10-28T11:45:50Z</time>
      </trkpt>
      <trkpt lat="46.75267" lon="5.62603">
        <ele>383</ele>
        <time>2021-10-28T11:46:10Z</time>
      </trkpt>
      <trkpt lat="46.75268" lon="5.62606">
        <ele>382</ele>
        <time>2021-10-28T11:47:02Z</time>
      </trkpt>
      <trkpt lat="46.75267" lon="5.62604">
        <ele>382</ele>
        <time>2021-10-28T11:47:35Z</time>
      </trkpt>
      <trkpt lat="46.75262" lon="5.62604">
        <ele>380</ele>
        <time>2021-10-28T11:48:05Z</time>
      </trkpt>
      <trkpt lat="46.75243" lon="5.62611">
        <ele>378</ele>
        <time>2021-10-28T11:48:22Z</time>
      </trkpt>
      <trkpt lat="46.75239" lon="5.62617">
        <ele>378</ele>
        <time>2021-10-28T11:48:27Z</time>
      </trkpt>
      <trkpt lat="46.75236" lon="5.6262">
        <ele>378</ele>
        <time>2021-10-28T11:48:30Z</time>
      </trkpt>
      <trkpt lat="46.7523" lon="5.62627">
        <ele>378</ele>
        <time>2021-10-28T11:48:38Z</time>
      </trkpt>
      <trkpt lat="46.75226" lon="5.62635">
        <ele>377</ele>
        <time>2021-10-28T11:48:45Z</time>
      </trkpt>
      <trkpt lat="46.75224" lon="5.6264">
        <ele>378</ele>
        <time>2021-10-28T11:48:49Z</time>
      </trkpt>
      <trkpt lat="46.75221" lon="5.62645">
        <ele>377</ele>
        <time>2021-10-28T11:48:53Z</time>
      </trkpt>
      <trkpt lat="46.75218" lon="5.62649">
        <ele>378</ele>
        <time>2021-10-28T11:48:57Z</time>
      </trkpt>
      <trkpt lat="46.75217" lon="5.62655">
        <ele>377</ele>
        <time>2021-10-28T11:49:01Z</time>
      </trkpt>
      <trkpt lat="46.75215" lon="5.6266">
        <ele>377</ele>
        <time>2021-10-28T11:49:05Z</time>
      </trkpt>
      <trkpt lat="46.75213" lon="5.62665">
        <ele>377</ele>
        <time>2021-10-28T11:49:09Z</time>
      </trkpt>
      <trkpt lat="46.75212" lon="5.62671">
        <ele>377</ele>
        <time>2021-10-28T11:49:13Z</time>
      </trkpt>
      <trkpt lat="46.75212" lon="5.62681">
        <ele>378</ele>
        <time>2021-10-28T11:49:19Z</time>
      </trkpt>
      <trkpt lat="46.75212" lon="5.62689">
        <ele>378</ele>
        <time>2021-10-28T11:49:25Z</time>
      </trkpt>
      <trkpt lat="46.75212" lon="5.62696">
        <ele>378</ele>
        <time>2021-10-28T11:49:37Z</time>
      </trkpt>
      <trkpt lat="46.75212" lon="5.62703">
        <ele>378</ele>
        <time>2021-10-28T11:49:40Z</time>
      </trkpt>
      <trkpt lat="46.75213" lon="5.62711">
        <ele>379</ele>
        <time>2021-10-28T11:49:45Z</time>
      </trkpt>
      <trkpt lat="46.75213" lon="5.62721">
        <ele>379</ele>
        <time>2021-10-28T11:49:53Z</time>
      </trkpt>
      <trkpt lat="46.75213" lon="5.6273">
        <ele>379</ele>
        <time>2021-10-28T11:49:58Z</time>
      </trkpt>
      <trkpt lat="46.75215" lon="5.62735">
        <ele>378</ele>
        <time>2021-10-28T11:50:02Z</time>
      </trkpt>
      <trkpt lat="46.75216" lon="5.62744">
        <ele>378</ele>
        <time>2021-10-28T11:50:08Z</time>
      </trkpt>
      <trkpt lat="46.75218" lon="5.62749">
        <ele>377</ele>
        <time>2021-10-28T11:50:17Z</time>
      </trkpt>
      <trkpt lat="46.75217" lon="5.62755">
        <ele>377</ele>
        <time>2021-10-28T11:50:21Z</time>
      </trkpt>
      <trkpt lat="46.75218" lon="5.62761">
        <ele>376</ele>
        <time>2021-10-28T11:50:24Z</time>
      </trkpt>
      <trkpt lat="46.75218" lon="5.6277">
        <ele>376</ele>
        <time>2021-10-28T11:50:29Z</time>
      </trkpt>
      <trkpt lat="46.75215" lon="5.62786">
        <ele>376</ele>
        <time>2021-10-28T11:50:39Z</time>
      </trkpt>
      <trkpt lat="46.75214" lon="5.62795">
        <ele>376</ele>
        <time>2021-10-28T11:50:44Z</time>
      </trkpt>
      <trkpt lat="46.75211" lon="5.62802">
        <ele>376</ele>
        <time>2021-10-28T11:50:49Z</time>
      </trkpt>
      <trkpt lat="46.75205" lon="5.62829">
        <ele>374</ele>
        <time>2021-10-28T11:51:07Z</time>
      </trkpt>
      <trkpt lat="46.75205" lon="5.62848">
        <ele>372</ele>
        <time>2021-10-28T11:51:19Z</time>
      </trkpt>
      <trkpt lat="46.752" lon="5.62887">
        <ele>369</ele>
        <time>2021-10-28T11:51:48Z</time>
      </trkpt>
      <trkpt lat="46.75198" lon="5.62891">
        <ele>368</ele>
        <time>2021-10-28T11:51:52Z</time>
      </trkpt>
      <trkpt lat="46.75191" lon="5.62924">
        <ele>364</ele>
        <time>2021-10-28T11:52:15Z</time>
      </trkpt>
      <trkpt lat="46.75181" lon="5.62939">
        <ele>363</ele>
        <time>2021-10-28T11:52:26Z</time>
      </trkpt>
      <trkpt lat="46.75176" lon="5.62942">
        <ele>362</ele>
        <time>2021-10-28T11:52:32Z</time>
      </trkpt>
      <trkpt lat="46.7517" lon="5.62941">
        <ele>362</ele>
        <time>2021-10-28T11:52:38Z</time>
      </trkpt>
      <trkpt lat="46.75155" lon="5.62943">
        <ele>361</ele>
        <time>2021-10-28T11:52:54Z</time>
      </trkpt>
      <trkpt lat="46.7515" lon="5.62947">
        <ele>360</ele>
        <time>2021-10-28T11:52:59Z</time>
      </trkpt>
      <trkpt lat="46.75145" lon="5.62948">
        <ele>361</ele>
        <time>2021-10-28T11:53:06Z</time>
      </trkpt>
      <trkpt lat="46.75137" lon="5.62948">
        <ele>360</ele>
        <time>2021-10-28T11:53:18Z</time>
      </trkpt>
      <trkpt lat="46.7513" lon="5.62945">
        <ele>358</ele>
        <time>2021-10-28T11:53:26Z</time>
      </trkpt>
      <trkpt lat="46.75122" lon="5.62942">
        <ele>356</ele>
        <time>2021-10-28T11:53:40Z</time>
      </trkpt>
      <trkpt lat="46.75117" lon="5.62935">
        <ele>355</ele>
        <time>2021-10-28T11:53:45Z</time>
      </trkpt>
      <trkpt lat="46.75106" lon="5.62926">
        <ele>353</ele>
        <time>2021-10-28T11:53:55Z</time>
      </trkpt>
      <trkpt lat="46.75101" lon="5.6292">
        <ele>352</ele>
        <time>2021-10-28T11:54:00Z</time>
      </trkpt>
      <trkpt lat="46.75096" lon="5.62917">
        <ele>352</ele>
        <time>2021-10-28T11:54:04Z</time>
      </trkpt>
      <trkpt lat="46.75086" lon="5.62904">
        <ele>351</ele>
        <time>2021-10-28T11:54:13Z</time>
      </trkpt>
      <trkpt lat="46.75055" lon="5.6288">
        <ele>346</ele>
        <time>2021-10-28T11:54:46Z</time>
      </trkpt>
      <trkpt lat="46.75042" lon="5.62874">
        <ele>344</ele>
        <time>2021-10-28T11:54:59Z</time>
      </trkpt>
      <trkpt lat="46.75045" lon="5.62868">
        <ele>343</ele>
        <time>2021-10-28T11:55:17Z</time>
      </trkpt>
      <trkpt lat="46.7505" lon="5.62872">
        <ele>344</ele>
        <time>2021-10-28T11:55:22Z</time>
      </trkpt>
      <trkpt lat="46.75056" lon="5.62876">
        <ele>343</ele>
        <time>2021-10-28T11:55:27Z</time>
      </trkpt>
      <trkpt lat="46.75062" lon="5.62879">
        <ele>344</ele>
        <time>2021-10-28T11:55:32Z</time>
      </trkpt>
      <trkpt lat="46.7507" lon="5.62884">
        <ele>345</ele>
        <time>2021-10-28T11:55:41Z</time>
      </trkpt>
      <trkpt lat="46.75092" lon="5.62891">
        <ele>346</ele>
        <time>2021-10-28T11:56:02Z</time>
      </trkpt>
      <trkpt lat="46.75098" lon="5.62891">
        <ele>346</ele>
        <time>2021-10-28T11:56:07Z</time>
      </trkpt>
      <trkpt lat="46.75108" lon="5.62888">
        <ele>346</ele>
        <time>2021-10-28T11:56:18Z</time>
      </trkpt>
      <trkpt lat="46.75113" lon="5.62882">
        <ele>345</ele>
        <time>2021-10-28T11:56:23Z</time>
      </trkpt>
      <trkpt lat="46.75112" lon="5.62873">
        <ele>345</ele>
        <time>2021-10-28T11:56:29Z</time>
      </trkpt>
      <trkpt lat="46.75108" lon="5.62865">
        <ele>344</ele>
        <time>2021-10-28T11:56:33Z</time>
      </trkpt>
      <trkpt lat="46.75107" lon="5.62857">
        <ele>344</ele>
        <time>2021-10-28T11:56:38Z</time>
      </trkpt>
      <trkpt lat="46.75105" lon="5.62849">
        <ele>343</ele>
        <time>2021-10-28T11:56:43Z</time>
      </trkpt>
      <trkpt lat="46.75095" lon="5.62818">
        <ele>342</ele>
        <time>2021-10-28T11:57:03Z</time>
      </trkpt>
      <trkpt lat="46.75092" lon="5.62801">
        <ele>341</ele>
        <time>2021-10-28T11:57:12Z</time>
      </trkpt>
      <trkpt lat="46.75095" lon="5.62779">
        <ele>342</ele>
        <time>2021-10-28T11:57:27Z</time>
      </trkpt>
      <trkpt lat="46.75098" lon="5.62771">
        <ele>341</ele>
        <time>2021-10-28T11:57:32Z</time>
      </trkpt>
      <trkpt lat="46.75097" lon="5.62754">
        <ele>341</ele>
        <time>2021-10-28T11:57:41Z</time>
      </trkpt>
      <trkpt lat="46.75097" lon="5.62744">
        <ele>340</ele>
        <time>2021-10-28T11:57:48Z</time>
      </trkpt>
      <trkpt lat="46.75102" lon="5.62709">
        <ele>339</ele>
        <time>2021-10-28T11:58:11Z</time>
      </trkpt>
      <trkpt lat="46.75097" lon="5.62669">
        <ele>336</ele>
        <time>2021-10-28T11:58:38Z</time>
      </trkpt>
      <trkpt lat="46.75098" lon="5.62662">
        <ele>335</ele>
        <time>2021-10-28T11:58:42Z</time>
      </trkpt>
      <trkpt lat="46.75099" lon="5.62657">
        <ele>335</ele>
        <time>2021-10-28T11:58:46Z</time>
      </trkpt>
      <trkpt lat="46.751" lon="5.62645">
        <ele>334</ele>
        <time>2021-10-28T11:58:53Z</time>
      </trkpt>
      <trkpt lat="46.75098" lon="5.62641">
        <ele>334</ele>
        <time>2021-10-28T11:58:56Z</time>
      </trkpt>
      <trkpt lat="46.75097" lon="5.62635">
        <ele>334</ele>
        <time>2021-10-28T11:59:00Z</time>
      </trkpt>
      <trkpt lat="46.75097" lon="5.6263">
        <ele>333</ele>
        <time>2021-10-28T11:59:04Z</time>
      </trkpt>
      <trkpt lat="46.75096" lon="5.62625">
        <ele>333</ele>
        <time>2021-10-28T11:59:07Z</time>
      </trkpt>
      <trkpt lat="46.75095" lon="5.62619">
        <ele>332</ele>
        <time>2021-10-28T11:59:11Z</time>
      </trkpt>
      <trkpt lat="46.75093" lon="5.62614">
        <ele>332</ele>
        <time>2021-10-28T11:59:15Z</time>
      </trkpt>
      <trkpt lat="46.75092" lon="5.62608">
        <ele>332</ele>
        <time>2021-10-28T11:59:19Z</time>
      </trkpt>
      <trkpt lat="46.7508" lon="5.62588">
        <ele>331</ele>
        <time>2021-10-28T11:59:44Z</time>
      </trkpt>
      <trkpt lat="46.75074" lon="5.62591">
        <ele>331</ele>
        <time>2021-10-28T11:59:50Z</time>
      </trkpt>
      <trkpt lat="46.75069" lon="5.62595">
        <ele>330</ele>
        <time>2021-10-28T11:59:55Z</time>
      </trkpt>
      <trkpt lat="46.75062" lon="5.62596">
        <ele>329</ele>
        <time>2021-10-28T12:00:02Z</time>
      </trkpt>
      <trkpt lat="46.75043" lon="5.62588">
        <ele>326</ele>
        <time>2021-10-28T12:00:18Z</time>
      </trkpt>
      <trkpt lat="46.75039" lon="5.62585">
        <ele>325</ele>
        <time>2021-10-28T12:00:23Z</time>
      </trkpt>
      <trkpt lat="46.75027" lon="5.6258">
        <ele>323</ele>
        <time>2021-10-28T12:00:36Z</time>
      </trkpt>
      <trkpt lat="46.75013" lon="5.62568">
        <ele>320</ele>
        <time>2021-10-28T12:00:52Z</time>
      </trkpt>
      <trkpt lat="46.75011" lon="5.62563">
        <ele>319</ele>
        <time>2021-10-28T12:00:56Z</time>
      </trkpt>
      <trkpt lat="46.75009" lon="5.62551">
        <ele>317</ele>
        <time>2021-10-28T12:01:04Z</time>
      </trkpt>
      <trkpt lat="46.75014" lon="5.62544">
        <ele>316</ele>
        <time>2021-10-28T12:01:48Z</time>
      </trkpt>
      <trkpt lat="46.7502" lon="5.62529">
        <ele>315</ele>
        <time>2021-10-28T12:01:59Z</time>
      </trkpt>
      <trkpt lat="46.75025" lon="5.62526">
        <ele>315</ele>
        <time>2021-10-28T12:02:04Z</time>
      </trkpt>
      <trkpt lat="46.75033" lon="5.62513">
        <ele>314</ele>
        <time>2021-10-28T12:02:14Z</time>
      </trkpt>
      <trkpt lat="46.75036" lon="5.62504">
        <ele>314</ele>
        <time>2021-10-28T12:02:22Z</time>
      </trkpt>
      <trkpt lat="46.75038" lon="5.62485">
        <ele>312</ele>
        <time>2021-10-28T12:02:48Z</time>
      </trkpt>
      <trkpt lat="46.75039" lon="5.62476">
        <ele>312</ele>
        <time>2021-10-28T12:02:53Z</time>
      </trkpt>
      <trkpt lat="46.75046" lon="5.6246">
        <ele>310</ele>
        <time>2021-10-28T12:03:08Z</time>
      </trkpt>
      <trkpt lat="46.75055" lon="5.62456">
        <ele>310</ele>
        <time>2021-10-28T12:03:20Z</time>
      </trkpt>
      <trkpt lat="46.75066" lon="5.62457">
        <ele>309</ele>
        <time>2021-10-28T12:03:32Z</time>
      </trkpt>
      <trkpt lat="46.75073" lon="5.62453">
        <ele>308</ele>
        <time>2021-10-28T12:03:50Z</time>
      </trkpt>
      <trkpt lat="46.75084" lon="5.62447">
        <ele>308</ele>
        <time>2021-10-28T12:05:02Z</time>
      </trkpt>
      <trkpt lat="46.75095" lon="5.62439">
        <ele>306</ele>
        <time>2021-10-28T12:05:17Z</time>
      </trkpt>
      <trkpt lat="46.751" lon="5.62435">
        <ele>306</ele>
        <time>2021-10-28T12:05:22Z</time>
      </trkpt>
      <trkpt lat="46.75111" lon="5.62431">
        <ele>305</ele>
        <time>2021-10-28T12:05:31Z</time>
      </trkpt>
      <trkpt lat="46.75122" lon="5.62422">
        <ele>304</ele>
        <time>2021-10-28T12:05:41Z</time>
      </trkpt>
      <trkpt lat="46.75127" lon="5.62419">
        <ele>304</ele>
        <time>2021-10-28T12:05:47Z</time>
      </trkpt>
      <trkpt lat="46.75138" lon="5.62407">
        <ele>304</ele>
        <time>2021-10-28T12:06:01Z</time>
      </trkpt>
      <trkpt lat="46.75146" lon="5.6239">
        <ele>303</ele>
        <time>2021-10-28T12:06:16Z</time>
      </trkpt>
      <trkpt lat="46.75147" lon="5.62382">
        <ele>302</ele>
        <time>2021-10-28T12:06:21Z</time>
      </trkpt>
      <trkpt lat="46.75146" lon="5.62378">
        <ele>302</ele>
        <time>2021-10-28T12:06:24Z</time>
      </trkpt>
      <trkpt lat="46.75131" lon="5.62337">
        <ele>297</ele>
        <time>2021-10-28T12:06:55Z</time>
      </trkpt>
      <trkpt lat="46.75127" lon="5.6233">
        <ele>296</ele>
        <time>2021-10-28T12:07:01Z</time>
      </trkpt>
      <trkpt lat="46.75116" lon="5.62296">
        <ele>290</ele>
        <time>2021-10-28T12:07:29Z</time>
      </trkpt>
      <trkpt lat="46.75125" lon="5.62293">
        <ele>289</ele>
        <time>2021-10-28T12:08:45Z</time>
      </trkpt>
      <trkpt lat="46.75131" lon="5.62281">
        <ele>288</ele>
        <time>2021-10-28T12:08:56Z</time>
      </trkpt>
      <trkpt lat="46.75141" lon="5.62271">
        <ele>288</ele>
        <time>2021-10-28T12:09:07Z</time>
      </trkpt>
      <trkpt lat="46.75149" lon="5.62258">
        <ele>288</ele>
        <time>2021-10-28T12:09:17Z</time>
      </trkpt>
      <trkpt lat="46.75154" lon="5.62254">
        <ele>287</ele>
        <time>2021-10-28T12:09:22Z</time>
      </trkpt>
      <trkpt lat="46.75157" lon="5.62247">
        <ele>287</ele>
        <time>2021-10-28T12:09:27Z</time>
      </trkpt>
      <trkpt lat="46.75161" lon="5.62239">
        <ele>287</ele>
        <time>2021-10-28T12:09:32Z</time>
      </trkpt>
      <trkpt lat="46.75166" lon="5.62235">
        <ele>287</ele>
        <time>2021-10-28T12:09:36Z</time>
      </trkpt>
      <trkpt lat="46.7519" lon="5.62196">
        <ele>284</ele>
        <time>2021-10-28T12:10:09Z</time>
      </trkpt>
      <trkpt lat="46.75197" lon="5.62182">
        <ele>282</ele>
        <time>2021-10-28T12:10:19Z</time>
      </trkpt>
      <trkpt lat="46.752" lon="5.62174">
        <ele>282</ele>
        <time>2021-10-28T12:10:24Z</time>
      </trkpt>
      <trkpt lat="46.7521" lon="5.62146">
        <ele>278</ele>
        <time>2021-10-28T12:10:45Z</time>
      </trkpt>
      <trkpt lat="46.75214" lon="5.62139">
        <ele>277</ele>
        <time>2021-10-28T12:10:50Z</time>
      </trkpt>
      <trkpt lat="46.75219" lon="5.62134">
        <ele>277</ele>
        <time>2021-10-28T12:10:55Z</time>
      </trkpt>
      <trkpt lat="46.75231" lon="5.62114">
        <ele>277</ele>
        <time>2021-10-28T12:11:10Z</time>
      </trkpt>
      <trkpt lat="46.75241" lon="5.62102">
        <ele>277</ele>
        <time>2021-10-28T12:11:22Z</time>
      </trkpt>
      <trkpt lat="46.75247" lon="5.62089">
        <ele>277</ele>
        <time>2021-10-28T12:11:32Z</time>
      </trkpt>
      <trkpt lat="46.75265" lon="5.62066">
        <ele>277</ele>
        <time>2021-10-28T12:11:51Z</time>
      </trkpt>
      <trkpt lat="46.75269" lon="5.62059">
        <ele>278</ele>
        <time>2021-10-28T12:11:56Z</time>
      </trkpt>
      <trkpt lat="46.75275" lon="5.62049">
        <ele>278</ele>
        <time>2021-10-28T12:12:06Z</time>
      </trkpt>
      <trkpt lat="46.753" lon="5.62022">
        <ele>279</ele>
        <time>2021-10-28T12:12:35Z</time>
      </trkpt>
      <trkpt lat="46.75303" lon="5.62015">
        <ele>279</ele>
        <time>2021-10-28T12:12:41Z</time>
      </trkpt>
      <trkpt lat="46.7531" lon="5.62002">
        <ele>278</ele>
        <time>2021-10-28T12:12:51Z</time>
      </trkpt>
      <trkpt lat="46.7532" lon="5.61982">
        <ele>276</ele>
        <time>2021-10-28T12:13:09Z</time>
      </trkpt>
      <trkpt lat="46.75325" lon="5.61977">
        <ele>276</ele>
        <time>2021-10-28T12:13:14Z</time>
      </trkpt>
      <trkpt lat="46.75328" lon="5.61969">
        <ele>276</ele>
        <time>2021-10-28T12:13:19Z</time>
      </trkpt>
      <trkpt lat="46.7533" lon="5.61962">
        <ele>275</ele>
        <time>2021-10-28T12:13:24Z</time>
      </trkpt>
      <trkpt lat="46.75353" lon="5.61919">
        <ele>272</ele>
        <time>2021-10-28T12:13:59Z</time>
      </trkpt>
      <trkpt lat="46.75352" lon="5.61915">
        <ele>272</ele>
        <time>2021-10-28T12:14:43Z</time>
      </trkpt>
      <trkpt lat="46.75361" lon="5.61911">
        <ele>271</ele>
        <time>2021-10-28T12:18:06Z</time>
      </trkpt>
      <trkpt lat="46.75365" lon="5.61903">
        <ele>271</ele>
        <time>2021-10-28T12:18:12Z</time>
      </trkpt>
      <trkpt lat="46.75381" lon="5.61874">
        <ele>268</ele>
        <time>2021-10-28T12:18:33Z</time>
      </trkpt>
      <trkpt lat="46.75384" lon="5.61866">
        <ele>268</ele>
        <time>2021-10-28T12:18:38Z</time>
      </trkpt>
      <trkpt lat="46.75412" lon="5.6182">
        <ele>264</ele>
        <time>2021-10-28T12:19:13Z</time>
      </trkpt>
      <trkpt lat="46.75419" lon="5.61804">
        <ele>263</ele>
        <time>2021-10-28T12:19:25Z</time>
      </trkpt>
      <trkpt lat="46.75424" lon="5.61798">
        <ele>262</ele>
        <time>2021-10-28T12:19:30Z</time>
      </trkpt>
      <trkpt lat="46.75423" lon="5.61786">
        <ele>260</ele>
        <time>2021-10-28T12:19:38Z</time>
      </trkpt>
      <trkpt lat="46.75421" lon="5.61781">
        <ele>260</ele>
        <time>2021-10-28T12:19:41Z</time>
      </trkpt>
      <trkpt lat="46.7542" lon="5.61769">
        <ele>258</ele>
        <time>2021-10-28T12:19:49Z</time>
      </trkpt>
      <trkpt lat="46.7542" lon="5.61762">
        <ele>257</ele>
        <time>2021-10-28T12:19:55Z</time>
      </trkpt>
      <trkpt lat="46.75435" lon="5.61769">
        <ele>256</ele>
        <time>2021-10-28T12:20:08Z</time>
      </trkpt>
      <trkpt lat="46.75439" lon="5.61773">
        <ele>257</ele>
        <time>2021-10-28T12:20:14Z</time>
      </trkpt>
      <trkpt lat="46.75446" lon="5.61775">
        <ele>257</ele>
        <time>2021-10-28T12:20:20Z</time>
      </trkpt>
      <trkpt lat="46.75452" lon="5.61777">
        <ele>257</ele>
        <time>2021-10-28T12:20:25Z</time>
      </trkpt>
      <trkpt lat="46.75463" lon="5.61779">
        <ele>257</ele>
        <time>2021-10-28T12:20:35Z</time>
      </trkpt>
      <trkpt lat="46.75485" lon="5.61771">
        <ele>257</ele>
        <time>2021-10-28T12:20:57Z</time>
      </trkpt>
      <trkpt lat="46.75497" lon="5.61772">
        <ele>257</ele>
        <time>2021-10-28T12:21:05Z</time>
      </trkpt>
      <trkpt lat="46.75519" lon="5.61762">
        <ele>257</ele>
        <time>2021-10-28T12:21:24Z</time>
      </trkpt>
      <trkpt lat="46.75524" lon="5.61757">
        <ele>257</ele>
        <time>2021-10-28T12:21:29Z</time>
      </trkpt>
      <trkpt lat="46.75528" lon="5.6175">
        <ele>257</ele>
        <time>2021-10-28T12:21:34Z</time>
      </trkpt>
      <trkpt lat="46.75531" lon="5.61743">
        <ele>257</ele>
        <time>2021-10-28T12:21:40Z</time>
      </trkpt>
      <trkpt lat="46.75535" lon="5.61727">
        <ele>256</ele>
        <time>2021-10-28T12:21:49Z</time>
      </trkpt>
      <trkpt lat="46.75541" lon="5.61712">
        <ele>257</ele>
        <time>2021-10-28T12:21:59Z</time>
      </trkpt>
      <trkpt lat="46.75543" lon="5.61704">
        <ele>258</ele>
        <time>2021-10-28T12:22:04Z</time>
      </trkpt>
      <trkpt lat="46.75548" lon="5.61688">
        <ele>257</ele>
        <time>2021-10-28T12:22:15Z</time>
      </trkpt>
      <trkpt lat="46.75551" lon="5.61682">
        <ele>257</ele>
        <time>2021-10-28T12:22:22Z</time>
      </trkpt>
      <trkpt lat="46.75557" lon="5.61676">
        <ele>257</ele>
        <time>2021-10-28T12:22:28Z</time>
      </trkpt>
      <trkpt lat="46.75568" lon="5.61671">
        <ele>256</ele>
        <time>2021-10-28T12:22:38Z</time>
      </trkpt>
      <trkpt lat="46.75589" lon="5.61648">
        <ele>256</ele>
        <time>2021-10-28T12:23:04Z</time>
      </trkpt>
      <trkpt lat="46.75595" lon="5.61646">
        <ele>255</ele>
        <time>2021-10-28T12:23:08Z</time>
      </trkpt>
      <trkpt lat="46.75601" lon="5.61645">
        <ele>255</ele>
        <time>2021-10-28T12:23:13Z</time>
      </trkpt>
      <trkpt lat="46.75615" lon="5.61638">
        <ele>255</ele>
        <time>2021-10-28T12:23:32Z</time>
      </trkpt>
      <trkpt lat="46.75625" lon="5.61631">
        <ele>255</ele>
        <time>2021-10-28T12:23:42Z</time>
      </trkpt>
      <trkpt lat="46.75631" lon="5.61629">
        <ele>255</ele>
        <time>2021-10-28T12:23:46Z</time>
      </trkpt>
      <trkpt lat="46.75636" lon="5.61629">
        <ele>255</ele>
        <time>2021-10-28T12:23:51Z</time>
      </trkpt>
      <trkpt lat="46.75645" lon="5.6164">
        <ele>254</ele>
        <time>2021-10-28T12:23:59Z</time>
      </trkpt>
      <trkpt lat="46.7565" lon="5.61647">
        <ele>254</ele>
        <time>2021-10-28T12:24:04Z</time>
      </trkpt>
      <trkpt lat="46.75649" lon="5.61656">
        <ele>254</ele>
        <time>2021-10-28T12:24:13Z</time>
      </trkpt>
      <trkpt lat="46.75652" lon="5.61664">
        <ele>254</ele>
        <time>2021-10-28T12:24:19Z</time>
      </trkpt>
      <trkpt lat="46.75653" lon="5.61672">
        <ele>254</ele>
        <time>2021-10-28T12:24:25Z</time>
      </trkpt>
      <trkpt lat="46.75654" lon="5.61681">
        <ele>254</ele>
        <time>2021-10-28T12:24:31Z</time>
      </trkpt>
      <trkpt lat="46.75657" lon="5.61688">
        <ele>254</ele>
        <time>2021-10-28T12:24:35Z</time>
      </trkpt>
      <trkpt lat="46.75674" lon="5.61684">
        <ele>254</ele>
        <time>2021-10-28T12:24:53Z</time>
      </trkpt>
      <trkpt lat="46.7568" lon="5.61684">
        <ele>254</ele>
        <time>2021-10-28T12:24:59Z</time>
      </trkpt>
      <trkpt lat="46.75699" lon="5.61675">
        <ele>254</ele>
        <time>2021-10-28T12:25:18Z</time>
      </trkpt>
      <trkpt lat="46.75705" lon="5.61675">
        <ele>254</ele>
        <time>2021-10-28T12:25:23Z</time>
      </trkpt>
      <trkpt lat="46.7571" lon="5.61672">
        <ele>254</ele>
        <time>2021-10-28T12:25:29Z</time>
      </trkpt>
      <trkpt lat="46.75717" lon="5.61671">
        <ele>254</ele>
        <time>2021-10-28T12:25:34Z</time>
      </trkpt>
      <trkpt lat="46.75722" lon="5.61669">
        <ele>254</ele>
        <time>2021-10-28T12:25:39Z</time>
      </trkpt>
      <trkpt lat="46.75729" lon="5.61672">
        <ele>255</ele>
        <time>2021-10-28T12:25:46Z</time>
      </trkpt>
      <trkpt lat="46.75741" lon="5.61668">
        <ele>255</ele>
        <time>2021-10-28T12:25:57Z</time>
      </trkpt>
      <trkpt lat="46.75744" lon="5.61662">
        <ele>255</ele>
        <time>2021-10-28T12:26:03Z</time>
      </trkpt>
      <trkpt lat="46.7575" lon="5.61646">
        <ele>254</ele>
        <time>2021-10-28T12:26:17Z</time>
      </trkpt>
      <trkpt lat="46.75758" lon="5.61631">
        <ele>253</ele>
        <time>2021-10-28T12:26:27Z</time>
      </trkpt>
      <trkpt lat="46.75764" lon="5.61608">
        <ele>253</ele>
        <time>2021-10-28T12:26:42Z</time>
      </trkpt>
      <trkpt lat="46.75766" lon="5.616">
        <ele>253</ele>
        <time>2021-10-28T12:26:48Z</time>
      </trkpt>
      <trkpt lat="46.75767" lon="5.61592">
        <ele>253</ele>
        <time>2021-10-28T12:26:54Z</time>
      </trkpt>
      <trkpt lat="46.75768" lon="5.61583">
        <ele>253</ele>
        <time>2021-10-28T12:26:59Z</time>
      </trkpt>
      <trkpt lat="46.75768" lon="5.61574">
        <ele>253</ele>
        <time>2021-10-28T12:27:05Z</time>
      </trkpt>
      <trkpt lat="46.75772" lon="5.61565">
        <ele>253</ele>
        <time>2021-10-28T12:27:19Z</time>
      </trkpt>
      <trkpt lat="46.75777" lon="5.61561">
        <ele>253</ele>
        <time>2021-10-28T12:27:25Z</time>
      </trkpt>
      <trkpt lat="46.75782" lon="5.61556">
        <ele>253</ele>
        <time>2021-10-28T12:27:34Z</time>
      </trkpt>
      <trkpt lat="46.75791" lon="5.61556">
        <ele>253</ele>
        <time>2021-10-28T12:27:52Z</time>
      </trkpt>
      <trkpt lat="46.75796" lon="5.61561">
        <ele>253</ele>
        <time>2021-10-28T12:27:57Z</time>
      </trkpt>
      <trkpt lat="46.758" lon="5.61567">
        <ele>253</ele>
        <time>2021-10-28T12:28:03Z</time>
      </trkpt>
      <trkpt lat="46.75806" lon="5.61569">
        <ele>252</ele>
        <time>2021-10-28T12:28:10Z</time>
      </trkpt>
      <trkpt lat="46.75813" lon="5.61564">
        <ele>252</ele>
        <time>2021-10-28T12:28:18Z</time>
      </trkpt>
      <trkpt lat="46.75837" lon="5.61555">
        <ele>252</ele>
        <time>2021-10-28T12:28:45Z</time>
      </trkpt>
      <trkpt lat="46.75847" lon="5.61546">
        <ele>253</ele>
        <time>2021-10-28T12:28:55Z</time>
      </trkpt>
      <trkpt lat="46.75852" lon="5.61543">
        <ele>252</ele>
        <time>2021-10-28T12:29:00Z</time>
      </trkpt>
      <trkpt lat="46.75865" lon="5.61539">
        <ele>252</ele>
        <time>2021-10-28T12:29:10Z</time>
      </trkpt>
      <trkpt lat="46.75877" lon="5.61531">
        <ele>253</ele>
        <time>2021-10-28T12:29:22Z</time>
      </trkpt>
      <trkpt lat="46.75885" lon="5.61519">
        <ele>253</ele>
        <time>2021-10-28T12:29:32Z</time>
      </trkpt>
      <trkpt lat="46.7589" lon="5.61515">
        <ele>253</ele>
        <time>2021-10-28T12:29:38Z</time>
      </trkpt>
      <trkpt lat="46.75907" lon="5.61507">
        <ele>253</ele>
        <time>2021-10-28T12:29:53Z</time>
      </trkpt>
      <trkpt lat="46.75912" lon="5.61503">
        <ele>253</ele>
        <time>2021-10-28T12:29:57Z</time>
      </trkpt>
      <trkpt lat="46.75925" lon="5.61497">
        <ele>253</ele>
        <time>2021-10-28T12:30:10Z</time>
      </trkpt>
      <trkpt lat="46.75929" lon="5.61492">
        <ele>253</ele>
        <time>2021-10-28T12:30:15Z</time>
      </trkpt>
      <trkpt lat="46.75937" lon="5.61487">
        <ele>253</ele>
        <time>2021-10-28T12:30:22Z</time>
      </trkpt>
      <trkpt lat="46.75943" lon="5.61487">
        <ele>254</ele>
        <time>2021-10-28T12:30:26Z</time>
      </trkpt>
      <trkpt lat="46.75947" lon="5.61485">
        <ele>254</ele>
        <time>2021-10-28T12:30:35Z</time>
      </trkpt>
      <trkpt lat="46.75953" lon="5.61486">
        <ele>254</ele>
        <time>2021-10-28T12:30:48Z</time>
      </trkpt>
      <trkpt lat="46.75958" lon="5.61484">
        <ele>253</ele>
        <time>2021-10-28T12:30:54Z</time>
      </trkpt>
      <trkpt lat="46.75964" lon="5.61483">
        <ele>254</ele>
        <time>2021-10-28T12:31:00Z</time>
      </trkpt>
      <trkpt lat="46.75981" lon="5.61469">
        <ele>254</ele>
        <time>2021-10-28T12:31:17Z</time>
      </trkpt>
      <trkpt lat="46.75985" lon="5.61462">
        <ele>254</ele>
        <time>2021-10-28T12:31:22Z</time>
      </trkpt>
      <trkpt lat="46.75985" lon="5.6145">
        <ele>254</ele>
        <time>2021-10-28T12:31:30Z</time>
      </trkpt>
      <trkpt lat="46.75981" lon="5.61434">
        <ele>253</ele>
        <time>2021-10-28T12:31:40Z</time>
      </trkpt>
      <trkpt lat="46.75979" lon="5.61417">
        <ele>253</ele>
        <time>2021-10-28T12:31:51Z</time>
      </trkpt>
      <trkpt lat="46.7598" lon="5.61403">
        <ele>253</ele>
        <time>2021-10-28T12:32:01Z</time>
      </trkpt>
      <trkpt lat="46.75983" lon="5.61395">
        <ele>253</ele>
        <time>2021-10-28T12:32:07Z</time>
      </trkpt>
      <trkpt lat="46.75983" lon="5.61386">
        <ele>253</ele>
        <time>2021-10-28T12:32:12Z</time>
      </trkpt>
      <trkpt lat="46.75988" lon="5.61361">
        <ele>252</ele>
        <time>2021-10-28T12:32:26Z</time>
      </trkpt>
      <trkpt lat="46.75988" lon="5.61349">
        <ele>252</ele>
        <time>2021-10-28T12:32:34Z</time>
      </trkpt>
      <trkpt lat="46.75989" lon="5.61344">
        <ele>252</ele>
        <time>2021-10-28T12:32:37Z</time>
      </trkpt>
      <trkpt lat="46.75995" lon="5.61325">
        <ele>251</ele>
        <time>2021-10-28T12:32:48Z</time>
      </trkpt>
      <trkpt lat="46.75996" lon="5.61317">
        <ele>251</ele>
        <time>2021-10-28T12:32:53Z</time>
      </trkpt>
      <trkpt lat="46.76" lon="5.61309">
        <ele>251</ele>
        <time>2021-10-28T12:32:59Z</time>
      </trkpt>
      <trkpt lat="46.76003" lon="5.61301">
        <ele>251</ele>
        <time>2021-10-28T12:33:04Z</time>
      </trkpt>
      <trkpt lat="46.76008" lon="5.61286">
        <ele>251</ele>
        <time>2021-10-28T12:33:13Z</time>
      </trkpt>
      <trkpt lat="46.76011" lon="5.61274">
        <ele>250</ele>
        <time>2021-10-28T12:33:22Z</time>
      </trkpt>
      <trkpt lat="46.7602" lon="5.61263">
        <ele>250</ele>
        <time>2021-10-28T12:33:35Z</time>
      </trkpt>
      <trkpt lat="46.76024" lon="5.61257">
        <ele>250</ele>
        <time>2021-10-28T12:33:40Z</time>
      </trkpt>
      <trkpt lat="46.76057" lon="5.6123">
        <ele>250</ele>
        <time>2021-10-28T12:34:09Z</time>
      </trkpt>
      <trkpt lat="46.76064" lon="5.61218">
        <ele>250</ele>
        <time>2021-10-28T12:34:20Z</time>
      </trkpt>
      <trkpt lat="46.76066" lon="5.61209">
        <ele>250</ele>
        <time>2021-10-28T12:34:24Z</time>
      </trkpt>
      <trkpt lat="46.76069" lon="5.612">
        <ele>251</ele>
        <time>2021-10-28T12:34:29Z</time>
      </trkpt>
      <trkpt lat="46.76077" lon="5.6118">
        <ele>250</ele>
        <time>2021-10-28T12:34:43Z</time>
      </trkpt>
      <trkpt lat="46.7608" lon="5.61174">
        <ele>251</ele>
        <time>2021-10-28T12:34:49Z</time>
      </trkpt>
      <trkpt lat="46.76089" lon="5.6115">
        <ele>250</ele>
        <time>2021-10-28T12:35:07Z</time>
      </trkpt>
      <trkpt lat="46.76094" lon="5.61145">
        <ele>250</ele>
        <time>2021-10-28T12:35:12Z</time>
      </trkpt>
      <trkpt lat="46.761" lon="5.61126">
        <ele>250</ele>
        <time>2021-10-28T12:35:25Z</time>
      </trkpt>
      <trkpt lat="46.76106" lon="5.61119">
        <ele>250</ele>
        <time>2021-10-28T12:35:34Z</time>
      </trkpt>
      <trkpt lat="46.76109" lon="5.6111">
        <ele>250</ele>
        <time>2021-10-28T12:35:40Z</time>
      </trkpt>
      <trkpt lat="46.7612" lon="5.61102">
        <ele>249</ele>
        <time>2021-10-28T12:35:49Z</time>
      </trkpt>
      <trkpt lat="46.76153" lon="5.61064">
        <ele>249</ele>
        <time>2021-10-28T12:36:22Z</time>
      </trkpt>
      <trkpt lat="46.76163" lon="5.61053">
        <ele>249</ele>
        <time>2021-10-28T12:36:33Z</time>
      </trkpt>
      <trkpt lat="46.76173" lon="5.61038">
        <ele>249</ele>
        <time>2021-10-28T12:36:45Z</time>
      </trkpt>
      <trkpt lat="46.76178" lon="5.61031">
        <ele>249</ele>
        <time>2021-10-28T12:36:53Z</time>
      </trkpt>
      <trkpt lat="46.76185" lon="5.61028">
        <ele>249</ele>
        <time>2021-10-28T12:37:00Z</time>
      </trkpt>
      <trkpt lat="46.76194" lon="5.6103">
        <ele>249</ele>
        <time>2021-10-28T12:37:10Z</time>
      </trkpt>
      <trkpt lat="46.76203" lon="5.61024">
        <ele>249</ele>
        <time>2021-10-28T12:37:18Z</time>
      </trkpt>
      <trkpt lat="46.76209" lon="5.61019">
        <ele>249</ele>
        <time>2021-10-28T12:37:23Z</time>
      </trkpt>
      <trkpt lat="46.76238" lon="5.60998">
        <ele>249</ele>
        <time>2021-10-28T12:37:44Z</time>
      </trkpt>
      <trkpt lat="46.76253" lon="5.60978">
        <ele>249</ele>
        <time>2021-10-28T12:38:01Z</time>
      </trkpt>
      <trkpt lat="46.76264" lon="5.60955">
        <ele>249</ele>
        <time>2021-10-28T12:38:17Z</time>
      </trkpt>
      <trkpt lat="46.76278" lon="5.60938">
        <ele>249</ele>
        <time>2021-10-28T12:38:30Z</time>
      </trkpt>
      <trkpt lat="46.76281" lon="5.60928">
        <ele>249</ele>
        <time>2021-10-28T12:38:35Z</time>
      </trkpt>
      <trkpt lat="46.76288" lon="5.60915">
        <ele>249</ele>
        <time>2021-10-28T12:38:44Z</time>
      </trkpt>
      <trkpt lat="46.76294" lon="5.60902">
        <ele>249</ele>
        <time>2021-10-28T12:38:53Z</time>
      </trkpt>
      <trkpt lat="46.76299" lon="5.60895">
        <ele>249</ele>
        <time>2021-10-28T12:39:00Z</time>
      </trkpt>
      <trkpt lat="46.76307" lon="5.6088">
        <ele>249</ele>
        <time>2021-10-28T12:39:11Z</time>
      </trkpt>
      <trkpt lat="46.76316" lon="5.6087">
        <ele>249</ele>
        <time>2021-10-28T12:39:20Z</time>
      </trkpt>
      <trkpt lat="46.7632" lon="5.60862">
        <ele>249</ele>
        <time>2021-10-28T12:39:25Z</time>
      </trkpt>
      <trkpt lat="46.76322" lon="5.60855">
        <ele>249</ele>
        <time>2021-10-28T12:39:31Z</time>
      </trkpt>
      <trkpt lat="46.76327" lon="5.6085">
        <ele>249</ele>
        <time>2021-10-28T12:39:36Z</time>
      </trkpt>
      <trkpt lat="46.76334" lon="5.60835">
        <ele>249</ele>
        <time>2021-10-28T12:39:46Z</time>
      </trkpt>
      <trkpt lat="46.76349" lon="5.60813">
        <ele>249</ele>
        <time>2021-10-28T12:40:04Z</time>
      </trkpt>
      <trkpt lat="46.76353" lon="5.60808">
        <ele>249</ele>
        <time>2021-10-28T12:40:10Z</time>
      </trkpt>
      <trkpt lat="46.76358" lon="5.60803">
        <ele>249</ele>
        <time>2021-10-28T12:40:15Z</time>
      </trkpt>
      <trkpt lat="46.76364" lon="5.60799">
        <ele>249</ele>
        <time>2021-10-28T12:40:21Z</time>
      </trkpt>
      <trkpt lat="46.76371" lon="5.60793">
        <ele>249</ele>
        <time>2021-10-28T12:40:30Z</time>
      </trkpt>
      <trkpt lat="46.76378" lon="5.60788">
        <ele>249</ele>
        <time>2021-10-28T12:40:37Z</time>
      </trkpt>
      <trkpt lat="46.76384" lon="5.60781">
        <ele>249</ele>
        <time>2021-10-28T12:40:44Z</time>
      </trkpt>
      <trkpt lat="46.7639" lon="5.60773">
        <ele>249</ele>
        <time>2021-10-28T12:40:49Z</time>
      </trkpt>
      <trkpt lat="46.764" lon="5.60765">
        <ele>249</ele>
        <time>2021-10-28T12:40:59Z</time>
      </trkpt>
      <trkpt lat="46.76405" lon="5.60761">
        <ele>249</ele>
        <time>2021-10-28T12:41:05Z</time>
      </trkpt>
      <trkpt lat="46.76416" lon="5.6075">
        <ele>249</ele>
        <time>2021-10-28T12:41:16Z</time>
      </trkpt>
      <trkpt lat="46.76421" lon="5.60747">
        <ele>249</ele>
        <time>2021-10-28T12:41:20Z</time>
      </trkpt>
      <trkpt lat="46.76431" lon="5.60737">
        <ele>250</ele>
        <time>2021-10-28T12:41:29Z</time>
      </trkpt>
      <trkpt lat="46.76435" lon="5.60734">
        <ele>249</ele>
        <time>2021-10-28T12:41:34Z</time>
      </trkpt>
      <trkpt lat="46.76439" lon="5.60727">
        <ele>249</ele>
        <time>2021-10-28T12:41:39Z</time>
      </trkpt>
      <trkpt lat="46.76444" lon="5.60721">
        <ele>249</ele>
        <time>2021-10-28T12:41:44Z</time>
      </trkpt>
      <trkpt lat="46.76449" lon="5.60717">
        <ele>250</ele>
        <time>2021-10-28T12:41:48Z</time>
      </trkpt>
      <trkpt lat="46.76476" lon="5.6069">
        <ele>249</ele>
        <time>2021-10-28T12:42:14Z</time>
      </trkpt>
      <trkpt lat="46.76486" lon="5.60669">
        <ele>249</ele>
        <time>2021-10-28T12:42:28Z</time>
      </trkpt>
      <trkpt lat="46.7649" lon="5.60663">
        <ele>249</ele>
        <time>2021-10-28T12:42:33Z</time>
      </trkpt>
      <trkpt lat="46.76494" lon="5.60658">
        <ele>249</ele>
        <time>2021-10-28T12:42:39Z</time>
      </trkpt>
      <trkpt lat="46.76501" lon="5.60644">
        <ele>249</ele>
        <time>2021-10-28T12:42:49Z</time>
      </trkpt>
      <trkpt lat="46.76505" lon="5.60636">
        <ele>249</ele>
        <time>2021-10-28T12:42:54Z</time>
      </trkpt>
      <trkpt lat="46.76532" lon="5.60593">
        <ele>248</ele>
        <time>2021-10-28T12:43:30Z</time>
      </trkpt>
      <trkpt lat="46.76536" lon="5.60587">
        <ele>248</ele>
        <time>2021-10-28T12:43:35Z</time>
      </trkpt>
      <trkpt lat="46.76538" lon="5.60578">
        <ele>248</ele>
        <time>2021-10-28T12:43:40Z</time>
      </trkpt>
      <trkpt lat="46.76542" lon="5.60571">
        <ele>249</ele>
        <time>2021-10-28T12:43:45Z</time>
      </trkpt>
      <trkpt lat="46.76544" lon="5.60564">
        <ele>248</ele>
        <time>2021-10-28T12:43:50Z</time>
      </trkpt>
      <trkpt lat="46.76565" lon="5.60515">
        <ele>248</ele>
        <time>2021-10-28T12:44:24Z</time>
      </trkpt>
      <trkpt lat="46.76572" lon="5.60502">
        <ele>248</ele>
        <time>2021-10-28T12:44:33Z</time>
      </trkpt>
      <trkpt lat="46.76574" lon="5.60495">
        <ele>248</ele>
        <time>2021-10-28T12:44:38Z</time>
      </trkpt>
      <trkpt lat="46.76579" lon="5.60478">
        <ele>247</ele>
        <time>2021-10-28T12:44:49Z</time>
      </trkpt>
      <trkpt lat="46.7658" lon="5.6047">
        <ele>247</ele>
        <time>2021-10-28T12:44:54Z</time>
      </trkpt>
      <trkpt lat="46.766" lon="5.60418">
        <ele>247</ele>
        <time>2021-10-28T12:45:30Z</time>
      </trkpt>
      <trkpt lat="46.76604" lon="5.60413">
        <ele>247</ele>
        <time>2021-10-28T12:45:36Z</time>
      </trkpt>
      <trkpt lat="46.76618" lon="5.60352">
        <ele>246</ele>
        <time>2021-10-28T12:46:10Z</time>
      </trkpt>
      <trkpt lat="46.76621" lon="5.60346">
        <ele>246</ele>
        <time>2021-10-28T12:46:14Z</time>
      </trkpt>
      <trkpt lat="46.76634" lon="5.60307">
        <ele>246</ele>
        <time>2021-10-28T12:46:39Z</time>
      </trkpt>
      <trkpt lat="46.76635" lon="5.60299">
        <ele>246</ele>
        <time>2021-10-28T12:46:45Z</time>
      </trkpt>
      <trkpt lat="46.76647" lon="5.60269">
        <ele>246</ele>
        <time>2021-10-28T12:47:05Z</time>
      </trkpt>
      <trkpt lat="46.76652" lon="5.60251">
        <ele>246</ele>
        <time>2021-10-28T12:47:15Z</time>
      </trkpt>
      <trkpt lat="46.76668" lon="5.60203">
        <ele>245</ele>
        <time>2021-10-28T12:47:46Z</time>
      </trkpt>
      <trkpt lat="46.7667" lon="5.60197">
        <ele>245</ele>
        <time>2021-10-28T12:47:50Z</time>
      </trkpt>
      <trkpt lat="46.76673" lon="5.60193">
        <ele>245</ele>
        <time>2021-10-28T12:47:53Z</time>
      </trkpt>
      <trkpt lat="46.76681" lon="5.60169">
        <ele>245</ele>
        <time>2021-10-28T12:48:10Z</time>
      </trkpt>
      <trkpt lat="46.76683" lon="5.60159">
        <ele>245</ele>
        <time>2021-10-28T12:48:15Z</time>
      </trkpt>
      <trkpt lat="46.76684" lon="5.60152">
        <ele>245</ele>
        <time>2021-10-28T12:48:20Z</time>
      </trkpt>
      <trkpt lat="46.76685" lon="5.60143">
        <ele>245</ele>
        <time>2021-10-28T12:48:26Z</time>
      </trkpt>
      <trkpt lat="46.76693" lon="5.60121">
        <ele>245</ele>
        <time>2021-10-28T12:48:41Z</time>
      </trkpt>
      <trkpt lat="46.76711" lon="5.6007">
        <ele>244</ele>
        <time>2021-10-28T12:49:14Z</time>
      </trkpt>
      <trkpt lat="46.76715" lon="5.60063">
        <ele>244</ele>
        <time>2021-10-28T12:49:19Z</time>
      </trkpt>
      <trkpt lat="46.76718" lon="5.60058">
        <ele>244</ele>
        <time>2021-10-28T12:49:24Z</time>
      </trkpt>
      <trkpt lat="46.76726" lon="5.60052">
        <ele>244</ele>
        <time>2021-10-28T12:49:36Z</time>
      </trkpt>
      <trkpt lat="46.76732" lon="5.60051">
        <ele>244</ele>
        <time>2021-10-28T12:49:42Z</time>
      </trkpt>
      <trkpt lat="46.76736" lon="5.60046">
        <ele>244</ele>
        <time>2021-10-28T12:49:47Z</time>
      </trkpt>
      <trkpt lat="46.76737" lon="5.60037">
        <ele>243</ele>
        <time>2021-10-28T12:49:53Z</time>
      </trkpt>
      <trkpt lat="46.76733" lon="5.60026">
        <ele>243</ele>
        <time>2021-10-28T12:50:10Z</time>
      </trkpt>
      <trkpt lat="46.76724" lon="5.60014">
        <ele>243</ele>
        <time>2021-10-28T12:50:19Z</time>
      </trkpt>
      <trkpt lat="46.76699" lon="5.59999">
        <ele>244</ele>
        <time>2021-10-28T12:50:46Z</time>
      </trkpt>
      <trkpt lat="46.76693" lon="5.59998">
        <ele>244</ele>
        <time>2021-10-28T12:50:52Z</time>
      </trkpt>
    </trkseg>
  </trk>
</gpx>